DAL7 KLAX-RJTT
Flight info
| Callsign | DAL7 |
|---|---|
| Flight time | 8h 47m |
| Altitude | 32000 |
| Route | LADYJ4 COREZ DCT RGOOD DCT CCR DCT ENI DCT BOXER DCT FULMR DCT 45N130W 50N142W/N0472F340 55N156W 56N160W 56N170W 56N180E/N0480F360 DCT NIKLL R220 NRKEY/N0476F370 R220 NUBDA/N0470F380 R220 NANAC Y810 AKRIT Y807 POLIX |
| Aircraft | B772/H-SDE2E3FGHIJ5LORVWXY/LB1D1 |
Departure
| Time | 2026-04-24 19:18 |
|---|---|
| Airport | Los Angeles International Airport (KLAX) |
Arrival
| Time | 2026-04-25 04:05 |
|---|---|
| Airport | Tokyo Haneda International Airport (RJTT) |
| Time | Latitude | Longitude | Altitude | Speed | Heading |
|---|---|---|---|---|---|
| 2026-04-24 18:54 | 33.94024 | -118.40925 | 138 ft | 0 kts | 263° |
| 2026-04-24 19:04 | 33.94024 | -118.40917 | 138 ft | 2 kts | 264° |
| 2026-04-24 19:04 | 33.94026 | -118.40900 | 138 ft | 2 kts | 264° |
| 2026-04-24 19:04 | 33.94027 | -118.40882 | 138 ft | 2 kts | 263° |
| 2026-04-24 19:04 | 33.94030 | -118.40864 | 138 ft | 2 kts | 263° |
| 2026-04-24 19:05 | 33.94031 | -118.40846 | 138 ft | 1 kts | 263° |
| 2026-04-24 19:05 | 33.94032 | -118.40836 | 138 ft | 1 kts | 243° |
| 2026-04-24 19:05 | 33.94041 | -118.40826 | 138 ft | 1 kts | 185° |
| 2026-04-24 19:05 | 33.94049 | -118.40826 | 138 ft | 1 kts | 172° |
| 2026-04-24 19:06 | 33.94051 | -118.40826 | 138 ft | 0 kts | 172° |
| 2026-04-24 19:09 | 33.94039 | -118.40826 | 138 ft | 4 kts | 175° |
| 2026-04-24 19:10 | 33.93990 | -118.40820 | 138 ft | 6 kts | 176° |
| 2026-04-24 19:10 | 33.93946 | -118.40815 | 139 ft | 6 kts | 174° |
| 2026-04-24 19:10 | 33.93880 | -118.40784 | 140 ft | 20 kts | 148° |
| 2026-04-24 19:10 | 33.93811 | -118.40655 | 140 ft | 11 kts | 85° |
| 2026-04-24 19:11 | 33.93822 | -118.40552 | 138 ft | 11 kts | 82° |
| 2026-04-24 19:11 | 33.93829 | -118.40483 | 137 ft | 7 kts | 83° |
| 2026-04-24 19:11 | 33.93842 | -118.40376 | 134 ft | 18 kts | 83° |
| 2026-04-24 19:11 | 33.93861 | -118.40190 | 130 ft | 25 kts | 83° |
| 2026-04-24 19:12 | 33.93882 | -118.39978 | 128 ft | 25 kts | 81° |
| 2026-04-24 19:12 | 33.93898 | -118.39844 | 126 ft | 8 kts | 84° |
| 2026-04-24 19:12 | 33.93906 | -118.39759 | 126 ft | 14 kts | 84° |
| 2026-04-24 19:12 | 33.93925 | -118.39565 | 121 ft | 28 kts | 84° |
| 2026-04-24 19:13 | 33.93941 | -118.39397 | 119 ft | 30 kts | 79° |
| 2026-04-24 19:13 | 33.93975 | -118.39092 | 116 ft | 23 kts | 84° |
| 2026-04-24 19:13 | 33.93996 | -118.38888 | 115 ft | 25 kts | 82° |
| 2026-04-24 19:13 | 33.94029 | -118.38694 | 114 ft | 19 kts | 75° |
| 2026-04-24 19:14 | 33.94034 | -118.38602 | 114 ft | 6 kts | 91° |
| 2026-04-24 19:14 | 33.94037 | -118.38523 | 113 ft | 12 kts | 82° |
| 2026-04-24 19:14 | 33.94056 | -118.38409 | 112 ft | 14 kts | 82° |
| 2026-04-24 19:14 | 33.94062 | -118.38262 | 111 ft | 21 kts | 88° |
| 2026-04-24 19:15 | 33.94080 | -118.38090 | 111 ft | 8 kts | 79° |
| 2026-04-24 19:15 | 33.94082 | -118.38071 | 110 ft | 1 kts | 89° |
| 2026-04-24 19:15 | 33.94068 | -118.38026 | 110 ft | 13 kts | 130° |
| 2026-04-24 19:15 | 33.93996 | -118.38007 | 110 ft | 8 kts | 210° |
| 2026-04-24 19:16 | 33.93986 | -118.38030 | 110 ft | 0 kts | 263° |
| 2026-04-24 19:17 | 33.93985 | -118.38031 | 110 ft | 2 kts | 262° |
| 2026-04-24 19:17 | 33.93964 | -118.38243 | 111 ft | 52 kts | 263° |
| 2026-04-24 19:17 | 33.93895 | -118.38897 | 115 ft | 104 kts | 263° |
| 2026-04-24 19:17 | 33.93789 | -118.39947 | 126 ft | 149 kts | 262° |
| 2026-04-24 19:18 | 33.93649 | -118.41324 | 205 ft | 179 kts | 263° |
| 2026-04-24 19:18 | 33.93509 | -118.42838 | 626 ft | 184 kts | 261° |
| 2026-04-24 19:18 | 33.93335 | -118.44382 | 1086 ft | 195 kts | 262° |
| 2026-04-24 19:18 | 33.93161 | -118.46031 | 1471 ft | 205 kts | 263° |
| 2026-04-24 19:19 | 33.93013 | -118.47794 | 1729 ft | 219 kts | 264° |
| 2026-04-24 19:19 | 33.92860 | -118.49716 | 2031 ft | 237 kts | 264° |
| 2026-04-24 19:19 | 33.92695 | -118.51749 | 2390 ft | 255 kts | 264° |
| 2026-04-24 19:19 | 33.92515 | -118.53929 | 2889 ft | 267 kts | 264° |
| 2026-04-24 19:20 | 33.92332 | -118.56145 | 3605 ft | 270 kts | 265° |
| 2026-04-24 19:20 | 33.92146 | -118.58391 | 4397 ft | 270 kts | 265° |
| 2026-04-24 19:20 | 33.92084 | -118.60618 | 5110 ft | 270 kts | 280° |
| 2026-04-24 19:20 | 33.92744 | -118.62679 | 5802 ft | 270 kts | 306° |
| 2026-04-24 19:21 | 33.94100 | -118.64226 | 6488 ft | 270 kts | 326° |
| 2026-04-24 19:21 | 33.95717 | -118.65398 | 7112 ft | 274 kts | 329° |
| 2026-04-24 19:21 | 33.97382 | -118.66497 | 7712 ft | 277 kts | 330° |
| 2026-04-24 19:21 | 33.99160 | -118.67449 | 7956 ft | 284 kts | 346° |
| 2026-04-24 19:22 | 34.00489 | -118.67629 | 7989 ft | 284 kts | 357° |
| 2026-04-24 19:22 | 34.03119 | -118.67509 | 8031 ft | 286 kts | 1° |
| 2026-04-24 19:22 | 34.05109 | -118.67368 | 8496 ft | 288 kts | 1° |
| 2026-04-24 19:22 | 34.07086 | -118.67233 | 9182 ft | 286 kts | 1° |
| 2026-04-24 19:23 | 34.09076 | -118.66892 | 9697 ft | 291 kts | 7° |
| 2026-04-24 19:23 | 34.11075 | -118.66418 | 10171 ft | 296 kts | 8° |
| 2026-04-24 19:23 | 34.13162 | -118.65916 | 10346 ft | 313 kts | 8° |
| 2026-04-24 19:23 | 34.15364 | -118.65391 | 10513 ft | 330 kts | 8° |
| 2026-04-24 19:24 | 34.17672 | -118.64844 | 10696 ft | 347 kts | 8° |
| 2026-04-24 19:24 | 34.20095 | -118.64271 | 10898 ft | 362 kts | 8° |
| 2026-04-24 19:24 | 34.22627 | -118.63702 | 11089 ft | 377 kts | 5° |
| 2026-04-24 19:24 | 34.25251 | -118.63596 | 11423 ft | 383 kts | 353° |
| 2026-04-24 19:25 | 34.27896 | -118.64057 | 11992 ft | 384 kts | 346° |
| 2026-04-24 19:25 | 34.30519 | -118.64645 | 12640 ft | 384 kts | 345° |
| 2026-04-24 19:25 | 34.33158 | -118.65245 | 13225 ft | 387 kts | 345° |
| 2026-04-24 19:25 | 34.35796 | -118.65846 | 13724 ft | 392 kts | 345° |
| 2026-04-24 19:26 | 34.38499 | -118.66463 | 14291 ft | 395 kts | 345° |
| 2026-04-24 19:26 | 34.41206 | -118.67134 | 14910 ft | 394 kts | 340° |
| 2026-04-24 19:26 | 34.43778 | -118.68266 | 15327 ft | 395 kts | 330° |
| 2026-04-24 19:26 | 34.46176 | -118.69857 | 15849 ft | 396 kts | 324° |
| 2026-04-24 19:27 | 34.48555 | -118.71541 | 16544 ft | 395 kts | 324° |
| 2026-04-24 19:27 | 34.50902 | -118.73206 | 17161 ft | 396 kts | 324° |
| 2026-04-24 19:27 | 34.53286 | -118.74898 | 17726 ft | 399 kts | 324° |
| 2026-04-24 19:27 | 34.55685 | -118.76598 | 18303 ft | 400 kts | 323° |
| 2026-04-24 19:28 | 34.58106 | -118.78314 | 18872 ft | 402 kts | 323° |
| 2026-04-24 19:28 | 34.60504 | -118.80013 | 19400 ft | 405 kts | 323° |
| 2026-04-24 19:28 | 34.62935 | -118.81737 | 19920 ft | 407 kts | 323° |
| 2026-04-24 19:28 | 34.65380 | -118.83471 | 20464 ft | 409 kts | 323° |
| 2026-04-24 19:29 | 34.70301 | -118.86963 | 21562 ft | 411 kts | 322° |
| 2026-04-24 19:29 | 34.72776 | -118.88721 | 22009 ft | 414 kts | 322° |
| 2026-04-24 19:29 | 34.75278 | -118.90501 | 22472 ft | 416 kts | 322° |
| 2026-04-24 19:30 | 34.77759 | -118.92265 | 22999 ft | 417 kts | 322° |
| 2026-04-24 19:30 | 34.80271 | -118.94052 | 23485 ft | 419 kts | 322° |
| 2026-04-24 19:30 | 34.82772 | -118.95838 | 23870 ft | 422 kts | 322° |
| 2026-04-24 19:30 | 34.85191 | -118.97566 | 24308 ft | 424 kts | 321° |
| 2026-04-24 19:31 | 34.87767 | -118.99408 | 24758 ft | 427 kts | 321° |
| 2026-04-24 19:31 | 34.90316 | -119.01231 | 25145 ft | 430 kts | 321° |
| 2026-04-24 19:31 | 34.92906 | -119.03086 | 25542 ft | 433 kts | 321° |
| 2026-04-24 19:31 | 34.95518 | -119.04957 | 25914 ft | 436 kts | 321° |
| 2026-04-24 19:32 | 34.98124 | -119.06825 | 26286 ft | 438 kts | 321° |
| 2026-04-24 19:32 | 35.00772 | -119.08723 | 26673 ft | 440 kts | 321° |
| 2026-04-24 19:32 | 35.03414 | -119.10616 | 27084 ft | 441 kts | 321° |
| 2026-04-24 19:32 | 35.06045 | -119.12505 | 27425 ft | 444 kts | 321° |
| 2026-04-24 19:33 | 35.08712 | -119.14421 | 27698 ft | 448 kts | 321° |
| 2026-04-24 19:33 | 35.11402 | -119.16355 | 27998 ft | 451 kts | 321° |
| 2026-04-24 19:33 | 35.14140 | -119.18324 | 28345 ft | 452 kts | 321° |
| 2026-04-24 19:33 | 35.16883 | -119.20297 | 28719 ft | 453 kts | 320° |
| 2026-04-24 19:34 | 35.19594 | -119.22251 | 29011 ft | 455 kts | 321° |
| 2026-04-24 19:34 | 35.22322 | -119.24217 | 29317 ft | 457 kts | 321° |
| 2026-04-24 19:34 | 35.25107 | -119.26228 | 29589 ft | 459 kts | 321° |
| 2026-04-24 19:34 | 35.27840 | -119.28200 | 29952 ft | 459 kts | 321° |
| 2026-04-24 19:35 | 35.30597 | -119.30191 | 30400 ft | 457 kts | 321° |
| 2026-04-24 19:35 | 35.33342 | -119.32175 | 30810 ft | 456 kts | 321° |
| 2026-04-24 19:35 | 35.36107 | -119.34176 | 31209 ft | 454 kts | 321° |
| 2026-04-24 19:35 | 35.38815 | -119.36138 | 31536 ft | 454 kts | 321° |
| 2026-04-24 19:36 | 35.41538 | -119.38113 | 31826 ft | 455 kts | 320° |
| 2026-04-24 19:36 | 35.44253 | -119.40083 | 31929 ft | 456 kts | 321° |
| 2026-04-24 19:36 | 35.46994 | -119.42073 | 31931 ft | 453 kts | 321° |
| 2026-04-24 19:37 | 35.52390 | -119.45995 | 31929 ft | 452 kts | 321° |
| 2026-04-24 19:37 | 35.57527 | -119.50275 | 31928 ft | 442 kts | 313° |
| 2026-04-24 19:38 | 35.62292 | -119.55128 | 31923 ft | 443 kts | 313° |
| 2026-04-24 19:38 | 35.67017 | -119.59957 | 31923 ft | 442 kts | 313° |
| 2026-04-24 19:39 | 35.71735 | -119.64786 | 31924 ft | 443 kts | 313° |
| 2026-04-24 19:39 | 35.76465 | -119.69634 | 31938 ft | 443 kts | 312° |
| 2026-04-24 19:40 | 35.81212 | -119.74505 | 31938 ft | 443 kts | 313° |
| 2026-04-24 19:40 | 35.85922 | -119.79346 | 31938 ft | 444 kts | 313° |
| 2026-04-24 19:41 | 35.90647 | -119.84210 | 31941 ft | 442 kts | 313° |
| 2026-04-24 19:41 | 35.95444 | -119.89014 | 31940 ft | 444 kts | 314° |
| 2026-04-24 19:42 | 36.00261 | -119.93791 | 31943 ft | 444 kts | 314° |
| 2026-04-24 19:42 | 36.05047 | -119.98554 | 31951 ft | 445 kts | 314° |
| 2026-04-24 19:43 | 36.09887 | -120.03382 | 31951 ft | 447 kts | 314° |
| 2026-04-24 19:43 | 36.14737 | -120.08228 | 31944 ft | 446 kts | 314° |
| 2026-04-24 19:44 | 36.18740 | -120.12236 | 31944 ft | 448 kts | 314° |
| 2026-04-24 19:44 | 36.24413 | -120.17927 | 31943 ft | 450 kts | 315° |
| 2026-04-24 19:45 | 36.29242 | -120.22776 | 31939 ft | 448 kts | 315° |
| 2026-04-24 19:45 | 36.34078 | -120.27644 | 31944 ft | 450 kts | 315° |
| 2026-04-24 19:46 | 36.38942 | -120.32548 | 31939 ft | 452 kts | 315° |
| 2026-04-24 19:46 | 36.43812 | -120.37463 | 31945 ft | 452 kts | 315° |
| 2026-04-24 19:47 | 36.48676 | -120.42383 | 31941 ft | 453 kts | 315° |
| 2026-04-24 19:47 | 36.53580 | -120.47352 | 31946 ft | 454 kts | 316° |
| 2026-04-24 19:48 | 36.58472 | -120.52316 | 31936 ft | 457 kts | 316° |
| 2026-04-24 19:48 | 36.65819 | -120.59786 | 31944 ft | 454 kts | 316° |
| 2026-04-24 19:49 | 36.75654 | -120.69818 | 31948 ft | 458 kts | 316° |
| 2026-04-24 19:50 | 36.85502 | -120.79898 | 31946 ft | 459 kts | 316° |
| 2026-04-24 19:51 | 36.92883 | -120.87474 | 31959 ft | 458 kts | 316° |
| 2026-04-24 19:52 | 37.00279 | -120.95087 | 31953 ft | 461 kts | 317° |
| 2026-04-24 19:52 | 37.05194 | -121.00156 | 31955 ft | 460 kts | 317° |
| 2026-04-24 19:53 | 37.10141 | -121.05268 | 31970 ft | 462 kts | 317° |
| 2026-04-24 19:54 | 37.17604 | -121.12996 | 31956 ft | 464 kts | 317° |
| 2026-04-24 19:54 | 37.22578 | -121.18158 | 31974 ft | 463 kts | 317° |
| 2026-04-24 19:55 | 37.25889 | -121.21600 | 31978 ft | 464 kts | 317° |
| 2026-04-24 19:55 | 37.32495 | -121.28477 | 31971 ft | 464 kts | 317° |
| 2026-04-24 19:56 | 37.37438 | -121.33635 | 31971 ft | 464 kts | 317° |
| 2026-04-24 19:56 | 37.42418 | -121.38841 | 31973 ft | 466 kts | 317° |
| 2026-04-24 19:57 | 37.47375 | -121.44031 | 31973 ft | 465 kts | 317° |
| 2026-04-24 19:57 | 37.52339 | -121.49237 | 31989 ft | 466 kts | 317° |
| 2026-04-24 19:58 | 37.57315 | -121.54466 | 31993 ft | 467 kts | 318° |
| 2026-04-24 19:58 | 37.62321 | -121.59736 | 31992 ft | 467 kts | 318° |
| 2026-04-24 19:59 | 37.67291 | -121.64978 | 31980 ft | 469 kts | 318° |
| 2026-04-24 19:59 | 37.72303 | -121.70274 | 31978 ft | 469 kts | 317° |
| 2026-04-24 20:00 | 37.77280 | -121.75542 | 31969 ft | 470 kts | 317° |
| 2026-04-24 20:00 | 37.82306 | -121.80871 | 31986 ft | 470 kts | 318° |
| 2026-04-24 20:01 | 37.87300 | -121.86176 | 31969 ft | 471 kts | 318° |
| 2026-04-24 20:01 | 37.92307 | -121.91505 | 31972 ft | 471 kts | 318° |
| 2026-04-24 20:02 | 37.96467 | -121.95940 | 31972 ft | 471 kts | 318° |
| 2026-04-24 20:02 | 38.02308 | -122.02178 | 31980 ft | 471 kts | 318° |
| 2026-04-24 20:03 | 38.07239 | -122.07655 | 31978 ft | 471 kts | 315° |
| 2026-04-24 20:03 | 38.11943 | -122.13346 | 31977 ft | 471 kts | 315° |
| 2026-04-24 20:04 | 38.16694 | -122.19083 | 31974 ft | 471 kts | 315° |
| 2026-04-24 20:04 | 38.21451 | -122.24818 | 31974 ft | 471 kts | 315° |
| 2026-04-24 20:05 | 38.26184 | -122.30525 | 31977 ft | 469 kts | 315° |
| 2026-04-24 20:05 | 38.30911 | -122.36232 | 31976 ft | 470 kts | 315° |
| 2026-04-24 20:06 | 38.35652 | -122.41962 | 31976 ft | 470 kts | 315° |
| 2026-04-24 20:06 | 38.40388 | -122.47697 | 31967 ft | 470 kts | 315° |
| 2026-04-24 20:07 | 38.44308 | -122.52451 | 31971 ft | 470 kts | 315° |
| 2026-04-24 20:07 | 38.49842 | -122.59176 | 31969 ft | 470 kts | 315° |
| 2026-04-24 20:08 | 38.54552 | -122.64910 | 31965 ft | 470 kts | 315° |
| 2026-04-24 20:08 | 38.59259 | -122.70652 | 31961 ft | 470 kts | 315° |
| 2026-04-24 20:09 | 38.63982 | -122.76425 | 31968 ft | 470 kts | 315° |
| 2026-04-24 20:09 | 38.68703 | -122.82205 | 31966 ft | 470 kts | 315° |
| 2026-04-24 20:10 | 38.73417 | -122.87989 | 31957 ft | 470 kts | 315° |
| 2026-04-24 20:10 | 38.78131 | -122.93783 | 31958 ft | 469 kts | 315° |
| 2026-04-24 20:11 | 38.82820 | -122.99558 | 31952 ft | 470 kts | 315° |
| 2026-04-24 20:11 | 38.87530 | -123.05370 | 31942 ft | 471 kts | 315° |
| 2026-04-24 20:12 | 38.92218 | -123.11166 | 31945 ft | 471 kts | 315° |
| 2026-04-24 20:12 | 38.96941 | -123.17017 | 31951 ft | 470 kts | 315° |
| 2026-04-24 20:13 | 39.01647 | -123.22857 | 31947 ft | 471 kts | 315° |
| 2026-04-24 20:13 | 39.06562 | -123.28313 | 31953 ft | 471 kts | 326° |
| 2026-04-24 20:14 | 39.12229 | -123.32611 | 31958 ft | 473 kts | 329° |
| 2026-04-24 20:14 | 39.17906 | -123.36827 | 31954 ft | 472 kts | 329° |
| 2026-04-24 20:15 | 39.23608 | -123.41079 | 31946 ft | 472 kts | 328° |
| 2026-04-24 20:15 | 39.29305 | -123.45340 | 31955 ft | 472 kts | 328° |
| 2026-04-24 20:16 | 39.34971 | -123.49588 | 31960 ft | 472 kts | 328° |
| 2026-04-24 20:16 | 39.40627 | -123.53839 | 31954 ft | 472 kts | 328° |
| 2026-04-24 20:17 | 39.46323 | -123.58128 | 31956 ft | 473 kts | 328° |
| 2026-04-24 20:17 | 39.54822 | -123.64544 | 31955 ft | 472 kts | 328° |
| 2026-04-24 20:18 | 39.60515 | -123.68852 | 31957 ft | 473 kts | 328° |
| 2026-04-24 20:18 | 39.66183 | -123.73150 | 31960 ft | 473 kts | 328° |
| 2026-04-24 20:19 | 39.71840 | -123.77448 | 31956 ft | 474 kts | 328° |
| 2026-04-24 20:19 | 39.77493 | -123.81750 | 31959 ft | 474 kts | 328° |
| 2026-04-24 20:20 | 39.83193 | -123.86098 | 31960 ft | 473 kts | 328° |
| 2026-04-24 20:20 | 39.88845 | -123.90417 | 31961 ft | 473 kts | 328° |
| 2026-04-24 20:21 | 39.94543 | -123.94778 | 31961 ft | 474 kts | 328° |
| 2026-04-24 20:21 | 40.00210 | -123.99126 | 31969 ft | 474 kts | 328° |
| 2026-04-24 20:22 | 40.05872 | -124.03477 | 31964 ft | 475 kts | 328° |
| 2026-04-24 20:22 | 40.11576 | -124.07870 | 31968 ft | 475 kts | 328° |
| 2026-04-24 20:23 | 40.17264 | -124.12259 | 31964 ft | 475 kts | 328° |
| 2026-04-24 20:23 | 40.22939 | -124.16647 | 31962 ft | 475 kts | 328° |
| 2026-04-24 20:24 | 40.28625 | -124.21051 | 31970 ft | 474 kts | 328° |
| 2026-04-24 20:24 | 40.34278 | -124.25439 | 31968 ft | 474 kts | 328° |
| 2026-04-24 20:25 | 40.39923 | -124.29829 | 31968 ft | 475 kts | 328° |
| 2026-04-24 20:25 | 40.45620 | -124.34268 | 31974 ft | 475 kts | 328° |
| 2026-04-24 20:26 | 40.51275 | -124.38684 | 31977 ft | 475 kts | 328° |
| 2026-04-24 20:26 | 40.56954 | -124.43127 | 31975 ft | 475 kts | 328° |
| 2026-04-24 20:27 | 40.62611 | -124.47562 | 31980 ft | 475 kts | 328° |
| 2026-04-24 20:27 | 40.68275 | -124.52010 | 31977 ft | 475 kts | 328° |
| 2026-04-24 20:28 | 40.73964 | -124.56488 | 31983 ft | 476 kts | 328° |
| 2026-04-24 20:28 | 40.79659 | -124.60979 | 31976 ft | 477 kts | 328° |
| 2026-04-24 20:29 | 40.85332 | -124.65462 | 31983 ft | 476 kts | 327° |
| 2026-04-24 20:29 | 40.90979 | -124.69934 | 31987 ft | 476 kts | 327° |
| 2026-04-24 20:30 | 40.96648 | -124.74432 | 31983 ft | 476 kts | 327° |
| 2026-04-24 20:30 | 41.02303 | -124.78928 | 31982 ft | 476 kts | 327° |
| 2026-04-24 20:31 | 41.07967 | -124.83440 | 31981 ft | 476 kts | 327° |
| 2026-04-24 20:31 | 41.13636 | -124.87965 | 31990 ft | 477 kts | 327° |
| 2026-04-24 20:32 | 41.19313 | -124.92506 | 31988 ft | 477 kts | 327° |
| 2026-04-24 20:32 | 41.24994 | -124.97060 | 31984 ft | 478 kts | 327° |
| 2026-04-24 20:33 | 41.30709 | -125.01651 | 31990 ft | 479 kts | 327° |
| 2026-04-24 20:33 | 41.36384 | -125.06219 | 31993 ft | 481 kts | 327° |
| 2026-04-24 20:34 | 41.42096 | -125.10825 | 31989 ft | 480 kts | 328° |
| 2026-04-24 20:34 | 41.47790 | -125.15429 | 31994 ft | 482 kts | 330° |
| 2026-04-24 20:35 | 41.53511 | -125.20061 | 31996 ft | 483 kts | 330° |
| 2026-04-24 20:35 | 41.59222 | -125.24696 | 32002 ft | 480 kts | 330° |
| 2026-04-24 20:36 | 41.64923 | -125.29333 | 31998 ft | 480 kts | 330° |
| 2026-04-24 20:36 | 41.70636 | -125.33988 | 32002 ft | 481 kts | 330° |
| 2026-04-24 20:37 | 41.76336 | -125.38644 | 32003 ft | 478 kts | 330° |
| 2026-04-24 20:37 | 41.81985 | -125.43268 | 32001 ft | 478 kts | 330° |
| 2026-04-24 20:38 | 41.87628 | -125.47896 | 32001 ft | 477 kts | 330° |
| 2026-04-24 20:38 | 41.93279 | -125.52539 | 32013 ft | 477 kts | 330° |
| 2026-04-24 20:39 | 41.98921 | -125.57187 | 32016 ft | 475 kts | 331° |
| 2026-04-24 20:39 | 42.04552 | -125.61835 | 32019 ft | 476 kts | 331° |
| 2026-04-24 20:40 | 42.10163 | -125.66475 | 32009 ft | 476 kts | 330° |
| 2026-04-24 20:40 | 42.15789 | -125.71138 | 32017 ft | 476 kts | 330° |
| 2026-04-24 20:41 | 42.21418 | -125.75813 | 32019 ft | 475 kts | 330° |
| 2026-04-24 20:41 | 42.27029 | -125.80483 | 32029 ft | 474 kts | 330° |
| 2026-04-24 20:42 | 42.32608 | -125.85137 | 32021 ft | 473 kts | 330° |
| 2026-04-24 20:42 | 42.38190 | -125.89803 | 32038 ft | 474 kts | 330° |
| 2026-04-24 20:43 | 42.43784 | -125.94488 | 32028 ft | 472 kts | 330° |
| 2026-04-24 20:43 | 42.49359 | -125.99169 | 32041 ft | 472 kts | 330° |
| 2026-04-24 20:44 | 42.54924 | -126.03850 | 32044 ft | 471 kts | 330° |
| 2026-04-24 20:44 | 42.60456 | -126.08513 | 32042 ft | 472 kts | 330° |
| 2026-04-24 20:45 | 42.66010 | -126.13205 | 32038 ft | 470 kts | 330° |
| 2026-04-24 20:45 | 42.71502 | -126.18049 | 32049 ft | 472 kts | 324° |
| 2026-04-24 20:46 | 42.76393 | -126.23944 | 32052 ft | 471 kts | 320° |
| 2026-04-24 20:46 | 42.81207 | -126.29944 | 32045 ft | 471 kts | 320° |
| 2026-04-24 20:47 | 42.86043 | -126.35995 | 32052 ft | 473 kts | 320° |
| 2026-04-24 20:47 | 42.90851 | -126.42033 | 32051 ft | 470 kts | 320° |
| 2026-04-24 20:48 | 42.95639 | -126.48061 | 32059 ft | 472 kts | 320° |
| 2026-04-24 20:48 | 43.00465 | -126.54153 | 32056 ft | 470 kts | 320° |
| 2026-04-24 20:49 | 43.05239 | -126.60192 | 32051 ft | 470 kts | 320° |
| 2026-04-24 20:49 | 43.10032 | -126.66270 | 32063 ft | 468 kts | 319° |
| 2026-04-24 20:50 | 43.14529 | -126.72688 | 32069 ft | 472 kts | 311° |
| 2026-04-24 20:50 | 43.18663 | -126.79592 | 32071 ft | 472 kts | 311° |
| 2026-04-24 20:51 | 43.22814 | -126.86551 | 32067 ft | 471 kts | 311° |
| 2026-04-24 20:51 | 43.26946 | -126.93492 | 32077 ft | 472 kts | 311° |
| 2026-04-24 20:52 | 43.31089 | -127.00465 | 32079 ft | 471 kts | 311° |
| 2026-04-24 20:52 | 43.35187 | -127.07378 | 32081 ft | 471 kts | 311° |
| 2026-04-24 20:53 | 43.39302 | -127.14339 | 32084 ft | 470 kts | 311° |
| 2026-04-24 20:53 | 43.43426 | -127.21328 | 32083 ft | 470 kts | 311° |
| 2026-04-24 20:54 | 43.47511 | -127.28268 | 32086 ft | 469 kts | 311° |
| 2026-04-24 20:54 | 43.51612 | -127.35251 | 32095 ft | 469 kts | 311° |
| 2026-04-24 20:55 | 43.55677 | -127.42192 | 32091 ft | 467 kts | 311° |
| 2026-04-24 20:55 | 43.59758 | -127.49173 | 32105 ft | 469 kts | 311° |
| 2026-04-24 20:56 | 43.63825 | -127.56149 | 32109 ft | 467 kts | 311° |
| 2026-04-24 20:56 | 43.67881 | -127.63123 | 32112 ft | 468 kts | 311° |
| 2026-04-24 20:57 | 43.71956 | -127.70145 | 32116 ft | 467 kts | 311° |
| 2026-04-24 20:57 | 43.75983 | -127.77103 | 32112 ft | 468 kts | 310° |
| 2026-04-24 20:58 | 43.80032 | -127.84115 | 32125 ft | 466 kts | 310° |
| 2026-04-24 20:58 | 43.84053 | -127.91095 | 32122 ft | 465 kts | 310° |
| 2026-04-24 20:59 | 43.88076 | -127.98096 | 32121 ft | 464 kts | 310° |
| 2026-04-24 20:59 | 43.92090 | -128.05096 | 32127 ft | 465 kts | 310° |
| 2026-04-24 21:00 | 43.96091 | -128.12094 | 32126 ft | 466 kts | 310° |
| 2026-04-24 21:00 | 44.00118 | -128.19151 | 32136 ft | 466 kts | 310° |
| 2026-04-24 21:01 | 44.04125 | -128.26192 | 32134 ft | 465 kts | 310° |
| 2026-04-24 21:01 | 44.08127 | -128.33241 | 32135 ft | 466 kts | 310° |
| 2026-04-24 21:02 | 44.12107 | -128.40269 | 32143 ft | 464 kts | 310° |
| 2026-04-24 21:02 | 44.16095 | -128.47328 | 32139 ft | 465 kts | 310° |
| 2026-04-24 21:03 | 44.20062 | -128.54366 | 32148 ft | 465 kts | 310° |
| 2026-04-24 21:03 | 44.24065 | -128.61487 | 32155 ft | 465 kts | 310° |
| 2026-04-24 21:04 | 44.28035 | -128.68564 | 32154 ft | 466 kts | 310° |
| 2026-04-24 21:04 | 44.31994 | -128.75639 | 32154 ft | 465 kts | 310° |
| 2026-04-24 21:05 | 44.35968 | -128.82761 | 32152 ft | 465 kts | 310° |
| 2026-04-24 21:05 | 44.39918 | -128.89856 | 32160 ft | 465 kts | 310° |
| 2026-04-24 21:06 | 44.43868 | -128.96970 | 32162 ft | 464 kts | 310° |
| 2026-04-24 21:06 | 44.47826 | -129.04114 | 32162 ft | 464 kts | 310° |
| 2026-04-24 21:07 | 44.51762 | -129.11237 | 32164 ft | 464 kts | 310° |
| 2026-04-24 21:07 | 44.55682 | -129.18347 | 32168 ft | 465 kts | 310° |
| 2026-04-24 21:08 | 44.59627 | -129.25520 | 32170 ft | 465 kts | 310° |
| 2026-04-24 21:08 | 44.63566 | -129.32701 | 32170 ft | 465 kts | 310° |
| 2026-04-24 21:09 | 44.67488 | -129.39870 | 32172 ft | 465 kts | 310° |
| 2026-04-24 21:09 | 44.71408 | -129.47052 | 32176 ft | 465 kts | 309° |
| 2026-04-24 21:10 | 44.75326 | -129.54248 | 32176 ft | 465 kts | 309° |
| 2026-04-24 21:10 | 44.79252 | -129.61478 | 32178 ft | 465 kts | 309° |
| 2026-04-24 21:11 | 44.83158 | -129.68689 | 32182 ft | 465 kts | 309° |
| 2026-04-24 21:11 | 44.87058 | -129.75906 | 32182 ft | 465 kts | 309° |
| 2026-04-24 21:12 | 44.90296 | -129.81914 | 32186 ft | 466 kts | 309° |
| 2026-04-24 21:12 | 44.94859 | -129.90401 | 32184 ft | 467 kts | 309° |
| 2026-04-24 21:13 | 44.98783 | -129.97716 | 32193 ft | 466 kts | 308° |
| 2026-04-24 21:13 | 45.02609 | -130.05016 | 32192 ft | 466 kts | 307° |
| 2026-04-24 21:14 | 45.06397 | -130.12439 | 32195 ft | 465 kts | 307° |
| 2026-04-24 21:14 | 45.10158 | -130.19817 | 32198 ft | 466 kts | 307° |
| 2026-04-24 21:15 | 45.13951 | -130.27269 | 32204 ft | 468 kts | 308° |
| 2026-04-24 21:15 | 45.17737 | -130.34724 | 32211 ft | 468 kts | 307° |
| 2026-04-24 21:16 | 45.21532 | -130.42215 | 32207 ft | 468 kts | 307° |
| 2026-04-24 21:16 | 45.25293 | -130.49655 | 32215 ft | 468 kts | 307° |
| 2026-04-24 21:17 | 45.29063 | -130.57134 | 32222 ft | 467 kts | 307° |
| 2026-04-24 21:17 | 45.32210 | -130.63390 | 32229 ft | 467 kts | 307° |
| 2026-04-24 21:18 | 45.36609 | -130.72160 | 32224 ft | 468 kts | 307° |
| 2026-04-24 21:18 | 45.40367 | -130.79672 | 32239 ft | 469 kts | 307° |
| 2026-04-24 21:19 | 45.44134 | -130.87224 | 32243 ft | 469 kts | 307° |
| 2026-04-24 21:19 | 45.47877 | -130.94746 | 32242 ft | 469 kts | 307° |
| 2026-04-24 21:20 | 45.53519 | -131.06122 | 32253 ft | 469 kts | 307° |
| 2026-04-24 21:21 | 45.57268 | -131.13709 | 32250 ft | 468 kts | 307° |
| 2026-04-24 21:21 | 45.60995 | -131.21268 | 32254 ft | 469 kts | 307° |
| 2026-04-24 21:22 | 45.64739 | -131.28883 | 32255 ft | 470 kts | 306° |
| 2026-04-24 21:22 | 45.68474 | -131.36500 | 32258 ft | 470 kts | 306° |
| 2026-04-24 21:23 | 45.72203 | -131.44128 | 32263 ft | 469 kts | 306° |
| 2026-04-24 21:23 | 45.75932 | -131.51775 | 32263 ft | 471 kts | 306° |
| 2026-04-24 21:24 | 45.79657 | -131.59433 | 32262 ft | 470 kts | 306° |
| 2026-04-24 21:24 | 45.83387 | -131.67123 | 32263 ft | 469 kts | 306° |
| 2026-04-24 21:25 | 45.87099 | -131.74797 | 32269 ft | 469 kts | 306° |
| 2026-04-24 21:25 | 45.90804 | -131.82478 | 32272 ft | 470 kts | 306° |
| 2026-04-24 21:26 | 45.94497 | -131.90152 | 32272 ft | 470 kts | 306° |
| 2026-04-24 21:26 | 45.98191 | -131.97853 | 32275 ft | 471 kts | 305° |
| 2026-04-24 21:27 | 46.01910 | -132.05626 | 32276 ft | 471 kts | 306° |
| 2026-04-24 21:27 | 46.05600 | -132.13359 | 32279 ft | 470 kts | 305° |
| 2026-04-24 21:28 | 46.09283 | -132.21100 | 32279 ft | 471 kts | 306° |
| 2026-04-24 21:28 | 46.12964 | -132.28856 | 32282 ft | 471 kts | 305° |
| 2026-04-24 21:29 | 46.16651 | -132.36649 | 32291 ft | 472 kts | 305° |
| 2026-04-24 21:29 | 46.20341 | -132.44467 | 32298 ft | 472 kts | 305° |
| 2026-04-24 21:30 | 46.24009 | -132.52263 | 32305 ft | 472 kts | 305° |
| 2026-04-24 21:30 | 46.27695 | -132.60117 | 32306 ft | 472 kts | 305° |
| 2026-04-24 21:31 | 46.31345 | -132.67917 | 32308 ft | 472 kts | 304° |
| 2026-04-24 21:31 | 46.35017 | -132.75786 | 32311 ft | 473 kts | 304° |
| 2026-04-24 21:32 | 46.38688 | -132.83675 | 32319 ft | 473 kts | 304° |
| 2026-04-24 21:32 | 46.42353 | -132.91573 | 32317 ft | 473 kts | 304° |
| 2026-04-24 21:33 | 46.45993 | -132.99440 | 32328 ft | 473 kts | 304° |
| 2026-04-24 21:33 | 46.49645 | -133.07353 | 32329 ft | 473 kts | 304° |
| 2026-04-24 21:34 | 46.53289 | -133.15274 | 32334 ft | 474 kts | 304° |
| 2026-04-24 21:34 | 46.56939 | -133.23227 | 32335 ft | 475 kts | 304° |
| 2026-04-24 21:35 | 46.60586 | -133.31201 | 32336 ft | 474 kts | 304° |
| 2026-04-24 21:35 | 46.64202 | -133.39128 | 32341 ft | 474 kts | 304° |
| 2026-04-24 21:36 | 46.67821 | -133.47082 | 32337 ft | 473 kts | 304° |
| 2026-04-24 21:36 | 46.71447 | -133.55077 | 32339 ft | 474 kts | 304° |
| 2026-04-24 21:37 | 46.75059 | -133.63062 | 32341 ft | 474 kts | 304° |
| 2026-04-24 21:37 | 46.78664 | -133.71059 | 32343 ft | 474 kts | 303° |
| 2026-04-24 21:38 | 46.82282 | -133.79103 | 32351 ft | 474 kts | 303° |
| 2026-04-24 21:38 | 46.85870 | -133.87105 | 32360 ft | 475 kts | 303° |
| 2026-04-24 21:39 | 46.89476 | -133.95169 | 32369 ft | 475 kts | 303° |
| 2026-04-24 21:39 | 46.93051 | -134.03191 | 32380 ft | 474 kts | 303° |
| 2026-04-24 21:40 | 46.96636 | -134.11255 | 32381 ft | 475 kts | 303° |
| 2026-04-24 21:40 | 47.00214 | -134.19328 | 32380 ft | 474 kts | 303° |
| 2026-04-24 21:41 | 47.03804 | -134.27455 | 32377 ft | 475 kts | 303° |
| 2026-04-24 21:41 | 47.07363 | -134.35532 | 32376 ft | 475 kts | 303° |
| 2026-04-24 21:42 | 47.10933 | -134.43658 | 32381 ft | 476 kts | 303° |
| 2026-04-24 21:42 | 47.14504 | -134.51811 | 32378 ft | 475 kts | 303° |
| 2026-04-24 21:43 | 47.18055 | -134.59941 | 32384 ft | 476 kts | 303° |
| 2026-04-24 21:43 | 47.21605 | -134.68094 | 32378 ft | 476 kts | 302° |
| 2026-04-24 21:44 | 47.25175 | -134.76318 | 32381 ft | 475 kts | 302° |
| 2026-04-24 21:44 | 47.28706 | -134.84477 | 32382 ft | 476 kts | 302° |
| 2026-04-24 21:45 | 47.32255 | -134.92702 | 32386 ft | 477 kts | 302° |
| 2026-04-24 21:45 | 47.35780 | -135.00894 | 32388 ft | 477 kts | 302° |
| 2026-04-24 21:46 | 47.39321 | -135.09149 | 32394 ft | 477 kts | 302° |
| 2026-04-24 21:46 | 47.42851 | -135.17404 | 32402 ft | 477 kts | 302° |
| 2026-04-24 21:47 | 47.46375 | -135.25670 | 32411 ft | 477 kts | 302° |
| 2026-04-24 21:47 | 47.49893 | -135.33946 | 32414 ft | 477 kts | 302° |
| 2026-04-24 21:48 | 47.53399 | -135.42217 | 32419 ft | 478 kts | 302° |
| 2026-04-24 21:48 | 47.56930 | -135.50577 | 32423 ft | 477 kts | 302° |
| 2026-04-24 21:49 | 47.60431 | -135.58887 | 32430 ft | 478 kts | 302° |
| 2026-04-24 21:49 | 47.63932 | -135.67224 | 32423 ft | 478 kts | 302° |
| 2026-04-24 21:50 | 47.67411 | -135.75534 | 32430 ft | 478 kts | 302° |
| 2026-04-24 21:50 | 47.70907 | -135.83913 | 32431 ft | 479 kts | 301° |
| 2026-04-24 21:51 | 47.74387 | -135.92276 | 32431 ft | 478 kts | 302° |
| 2026-04-24 21:51 | 47.77869 | -136.00671 | 32422 ft | 478 kts | 302° |
| 2026-04-24 21:52 | 47.81333 | -136.09047 | 32427 ft | 479 kts | 302° |
| 2026-04-24 21:52 | 47.84824 | -136.17517 | 32423 ft | 480 kts | 302° |
| 2026-04-24 21:53 | 47.88305 | -136.25987 | 32436 ft | 480 kts | 301° |
| 2026-04-24 21:53 | 47.91746 | -136.34387 | 32447 ft | 480 kts | 301° |
| 2026-04-24 21:54 | 47.95223 | -136.42902 | 32452 ft | 480 kts | 301° |
| 2026-04-24 21:54 | 47.98679 | -136.51392 | 32453 ft | 479 kts | 301° |
| 2026-04-24 21:55 | 48.02122 | -136.59874 | 32455 ft | 481 kts | 301° |
| 2026-04-24 21:55 | 48.05563 | -136.68382 | 32456 ft | 480 kts | 300° |
| 2026-04-24 21:56 | 48.08988 | -136.76875 | 32457 ft | 480 kts | 300° |
| 2026-04-24 21:56 | 48.12421 | -136.85416 | 32458 ft | 481 kts | 300° |
| 2026-04-24 21:57 | 48.15844 | -136.93957 | 32461 ft | 481 kts | 300° |
| 2026-04-24 21:57 | 48.19263 | -137.02518 | 32461 ft | 480 kts | 300° |
| 2026-04-24 21:58 | 48.22675 | -137.11089 | 32462 ft | 480 kts | 300° |
| 2026-04-24 21:58 | 48.26080 | -137.19665 | 32462 ft | 481 kts | 300° |
| 2026-04-24 21:59 | 48.29486 | -137.28276 | 32466 ft | 481 kts | 300° |
| 2026-04-24 21:59 | 48.32882 | -137.36890 | 32468 ft | 481 kts | 300° |
| 2026-04-24 22:00 | 48.36271 | -137.45511 | 32469 ft | 482 kts | 300° |
| 2026-04-24 22:00 | 48.39659 | -137.54160 | 32471 ft | 480 kts | 300° |
| 2026-04-24 22:01 | 48.43030 | -137.62790 | 32473 ft | 481 kts | 300° |
| 2026-04-24 22:01 | 48.46403 | -137.71457 | 32470 ft | 481 kts | 299° |
| 2026-04-24 22:02 | 48.49769 | -137.80131 | 32478 ft | 482 kts | 299° |
| 2026-04-24 22:02 | 48.53142 | -137.88853 | 32480 ft | 482 kts | 299° |
| 2026-04-24 22:03 | 48.56491 | -137.97542 | 32481 ft | 482 kts | 299° |
| 2026-04-24 22:03 | 48.59836 | -138.06249 | 32484 ft | 482 kts | 299° |
| 2026-04-24 22:04 | 48.63185 | -138.14995 | 32476 ft | 481 kts | 299° |
| 2026-04-24 22:04 | 48.66524 | -138.23743 | 32468 ft | 481 kts | 299° |
| 2026-04-24 22:05 | 48.69295 | -138.31026 | 32470 ft | 482 kts | 299° |
| 2026-04-24 22:05 | 48.73163 | -138.41223 | 32471 ft | 482 kts | 299° |
| 2026-04-24 22:06 | 48.76490 | -138.50029 | 32469 ft | 483 kts | 299° |
| 2026-04-24 22:06 | 48.79804 | -138.58827 | 32465 ft | 484 kts | 299° |
| 2026-04-24 22:07 | 48.83125 | -138.67674 | 32463 ft | 484 kts | 298° |
| 2026-04-24 22:07 | 48.86435 | -138.76524 | 32460 ft | 484 kts | 298° |
| 2026-04-24 22:08 | 48.89757 | -138.85432 | 32464 ft | 484 kts | 298° |
| 2026-04-24 22:08 | 48.93039 | -138.94266 | 32463 ft | 484 kts | 298° |
| 2026-04-24 22:09 | 48.96336 | -139.03169 | 32472 ft | 484 kts | 298° |
| 2026-04-24 22:09 | 48.99631 | -139.12096 | 32480 ft | 484 kts | 298° |
| 2026-04-24 22:10 | 49.02898 | -139.20979 | 32479 ft | 484 kts | 298° |
| 2026-04-24 22:10 | 49.06184 | -139.29945 | 32487 ft | 484 kts | 298° |
| 2026-04-24 22:11 | 49.09434 | -139.38840 | 32481 ft | 484 kts | 298° |
| 2026-04-24 22:11 | 49.12686 | -139.47772 | 32478 ft | 483 kts | 298° |
| 2026-04-24 22:12 | 49.15929 | -139.56711 | 32479 ft | 484 kts | 298° |
| 2026-04-24 22:12 | 49.19177 | -139.65695 | 32478 ft | 483 kts | 298° |
| 2026-04-24 22:13 | 49.22411 | -139.74670 | 32477 ft | 483 kts | 298° |
| 2026-04-24 22:13 | 49.25628 | -139.83630 | 32474 ft | 483 kts | 298° |
| 2026-04-24 22:14 | 49.28836 | -139.92596 | 32471 ft | 482 kts | 298° |
| 2026-04-24 22:14 | 49.32032 | -140.01559 | 32460 ft | 482 kts | 298° |
| 2026-04-24 22:15 | 49.35227 | -140.10550 | 32459 ft | 482 kts | 298° |
| 2026-04-24 22:15 | 49.38419 | -140.19563 | 32458 ft | 482 kts | 298° |
| 2026-04-24 22:16 | 49.41592 | -140.28554 | 32461 ft | 482 kts | 298° |
| 2026-04-24 22:16 | 49.44774 | -140.37602 | 32460 ft | 482 kts | 298° |
| 2026-04-24 22:17 | 49.47946 | -140.46657 | 32463 ft | 481 kts | 298° |
| 2026-04-24 22:17 | 49.51080 | -140.55631 | 32462 ft | 481 kts | 298° |
| 2026-04-24 22:18 | 49.54242 | -140.64719 | 32459 ft | 481 kts | 298° |
| 2026-04-24 22:18 | 49.57373 | -140.73749 | 32460 ft | 480 kts | 297° |
| 2026-04-24 22:19 | 49.60484 | -140.82753 | 32456 ft | 480 kts | 297° |
| 2026-04-24 22:19 | 49.63608 | -140.91824 | 32451 ft | 480 kts | 297° |
| 2026-04-24 22:20 | 49.66724 | -141.00908 | 32447 ft | 480 kts | 298° |
| 2026-04-24 22:20 | 49.69823 | -141.09975 | 32446 ft | 479 kts | 298° |
| 2026-04-24 22:21 | 49.72906 | -141.19025 | 32445 ft | 479 kts | 298° |
| 2026-04-24 22:21 | 49.75989 | -141.28108 | 32444 ft | 478 kts | 298° |
| 2026-04-24 22:22 | 49.79035 | -141.37112 | 32449 ft | 475 kts | 298° |
| 2026-04-24 22:22 | 49.82081 | -141.46152 | 32454 ft | 473 kts | 298° |
| 2026-04-24 22:23 | 49.85095 | -141.55127 | 32453 ft | 472 kts | 298° |
| 2026-04-24 22:23 | 49.88106 | -141.64125 | 32451 ft | 472 kts | 298° |
| 2026-04-24 22:24 | 49.91111 | -141.73137 | 32455 ft | 469 kts | 297° |
| 2026-04-24 22:24 | 49.94069 | -141.82040 | 32459 ft | 469 kts | 297° |
| 2026-04-24 22:25 | 49.97042 | -141.91020 | 32462 ft | 470 kts | 297° |
| 2026-04-24 22:25 | 50.00020 | -142.00046 | 32461 ft | 472 kts | 297° |
| 2026-04-24 22:26 | 50.03598 | -142.08540 | 32461 ft | 472 kts | 307° |
| 2026-04-24 22:26 | 50.07540 | -142.16701 | 32449 ft | 473 kts | 307° |
| 2026-04-24 22:27 | 50.11405 | -142.24893 | 32443 ft | 471 kts | 306° |
| 2026-04-24 22:27 | 50.15243 | -142.33148 | 32433 ft | 471 kts | 306° |
| 2026-04-24 22:28 | 50.19060 | -142.41431 | 32426 ft | 471 kts | 306° |
| 2026-04-24 22:28 | 50.22864 | -142.49741 | 32425 ft | 471 kts | 306° |
| 2026-04-24 22:29 | 50.28542 | -142.62215 | 32416 ft | 472 kts | 306° |
| 2026-04-24 22:29 | 50.32329 | -142.70575 | 32410 ft | 473 kts | 304° |
| 2026-04-24 22:30 | 50.36105 | -142.78941 | 32410 ft | 473 kts | 304° |
| 2026-04-24 22:30 | 50.39882 | -142.87337 | 32403 ft | 474 kts | 304° |
| 2026-04-24 22:31 | 50.43661 | -142.95764 | 32406 ft | 474 kts | 304° |
| 2026-04-24 22:31 | 50.47439 | -143.04217 | 32398 ft | 474 kts | 304° |
| 2026-04-24 22:32 | 50.51220 | -143.12705 | 32401 ft | 475 kts | 304° |
| 2026-04-24 22:32 | 50.54986 | -143.21185 | 32401 ft | 476 kts | 304° |
| 2026-04-24 22:33 | 50.58747 | -143.29684 | 32401 ft | 476 kts | 304° |
| 2026-04-24 22:33 | 50.62527 | -143.38251 | 32400 ft | 478 kts | 304° |
| 2026-04-24 22:34 | 50.66304 | -143.46841 | 32392 ft | 478 kts | 304° |
| 2026-04-24 22:34 | 50.70069 | -143.55432 | 32392 ft | 479 kts | 304° |
| 2026-04-24 22:35 | 50.73840 | -143.64064 | 32385 ft | 480 kts | 303° |
| 2026-04-24 22:35 | 50.77593 | -143.72682 | 32379 ft | 479 kts | 303° |
| 2026-04-24 22:36 | 50.81360 | -143.81364 | 32372 ft | 481 kts | 302° |
| 2026-04-24 22:36 | 50.85134 | -143.90089 | 32362 ft | 481 kts | 302° |
| 2026-04-24 22:37 | 50.88885 | -143.98793 | 32363 ft | 482 kts | 302° |
| 2026-04-24 22:37 | 50.92643 | -144.07536 | 32363 ft | 481 kts | 302° |
| 2026-04-24 22:38 | 50.96399 | -144.16309 | 32362 ft | 481 kts | 302° |
| 2026-04-24 22:38 | 51.00123 | -144.25035 | 32359 ft | 484 kts | 302° |
| 2026-04-24 22:39 | 51.03890 | -144.33893 | 32351 ft | 484 kts | 302° |
| 2026-04-24 22:39 | 51.07627 | -144.42708 | 32345 ft | 485 kts | 302° |
| 2026-04-24 22:40 | 51.11391 | -144.51617 | 32331 ft | 486 kts | 301° |
| 2026-04-24 22:40 | 51.15128 | -144.60496 | 32327 ft | 486 kts | 301° |
| 2026-04-24 22:41 | 51.18851 | -144.69368 | 32328 ft | 486 kts | 301° |
| 2026-04-24 22:41 | 51.21980 | -144.76849 | 32325 ft | 486 kts | 300° |
| 2026-04-24 22:42 | 51.26315 | -144.87250 | 32319 ft | 488 kts | 300° |
| 2026-04-24 22:42 | 51.30064 | -144.96280 | 32315 ft | 488 kts | 300° |
| 2026-04-24 22:43 | 51.33787 | -145.05278 | 32312 ft | 490 kts | 300° |
| 2026-04-24 22:43 | 51.37531 | -145.14355 | 32324 ft | 491 kts | 300° |
| 2026-04-24 22:44 | 51.41277 | -145.23471 | 32315 ft | 491 kts | 300° |
| 2026-04-24 22:44 | 51.45006 | -145.32579 | 32316 ft | 492 kts | 300° |
| 2026-04-24 22:45 | 51.48763 | -145.41786 | 32302 ft | 493 kts | 300° |
| 2026-04-24 22:45 | 51.52491 | -145.50957 | 32305 ft | 493 kts | 299° |
| 2026-04-24 22:46 | 51.56227 | -145.60179 | 32292 ft | 494 kts | 299° |
| 2026-04-24 22:46 | 51.59939 | -145.69373 | 32297 ft | 494 kts | 298° |
| 2026-04-24 22:47 | 51.63658 | -145.78621 | 32299 ft | 495 kts | 298° |
| 2026-04-24 22:47 | 51.67373 | -145.87889 | 32294 ft | 495 kts | 298° |
| 2026-04-24 22:48 | 51.71113 | -145.97255 | 32285 ft | 497 kts | 298° |
| 2026-04-24 22:48 | 51.74821 | -146.06575 | 32286 ft | 497 kts | 298° |
| 2026-04-24 22:49 | 51.78532 | -146.15933 | 32285 ft | 497 kts | 297° |
| 2026-04-24 22:49 | 51.82242 | -146.25325 | 32280 ft | 497 kts | 297° |
| 2026-04-24 22:50 | 51.85927 | -146.34689 | 32270 ft | 498 kts | 297° |
| 2026-04-24 22:50 | 51.89632 | -146.44141 | 32265 ft | 499 kts | 297° |
| 2026-04-24 22:51 | 51.93328 | -146.53600 | 32271 ft | 499 kts | 297° |
| 2026-04-24 22:51 | 51.97001 | -146.63036 | 32270 ft | 498 kts | 297° |
| 2026-04-24 22:52 | 52.00701 | -146.72580 | 32272 ft | 501 kts | 296° |
| 2026-04-24 22:52 | 52.04386 | -146.82115 | 32267 ft | 500 kts | 296° |
| 2026-04-24 22:53 | 52.08057 | -146.91655 | 32262 ft | 503 kts | 296° |
| 2026-04-24 22:53 | 52.11748 | -147.01277 | 32246 ft | 501 kts | 296° |
| 2026-04-24 22:54 | 52.15389 | -147.10809 | 32234 ft | 502 kts | 295° |
| 2026-04-24 22:54 | 52.19086 | -147.20528 | 32238 ft | 503 kts | 295° |
| 2026-04-24 22:55 | 52.22732 | -147.30141 | 32240 ft | 501 kts | 295° |
| 2026-04-24 22:55 | 52.26388 | -147.39822 | 32239 ft | 504 kts | 295° |
| 2026-04-24 22:56 | 52.30011 | -147.49448 | 32240 ft | 501 kts | 295° |
| 2026-04-24 22:56 | 52.33654 | -147.59175 | 32236 ft | 506 kts | 295° |
| 2026-04-24 22:57 | 52.37306 | -147.68950 | 32229 ft | 503 kts | 294° |
| 2026-04-24 22:57 | 52.40928 | -147.78688 | 32231 ft | 502 kts | 294° |
| 2026-04-24 22:58 | 52.44532 | -147.88419 | 32230 ft | 504 kts | 294° |
| 2026-04-24 22:58 | 52.48166 | -147.98261 | 32226 ft | 503 kts | 293° |
| 2026-04-24 22:59 | 52.51763 | -148.08046 | 32226 ft | 504 kts | 293° |
| 2026-04-24 23:00 | 52.57136 | -148.22729 | 32237 ft | 502 kts | 293° |
| 2026-04-24 23:00 | 52.60744 | -148.32645 | 32236 ft | 506 kts | 293° |
| 2026-04-24 23:01 | 52.64308 | -148.42465 | 32237 ft | 503 kts | 292° |
| 2026-04-24 23:01 | 52.67898 | -148.52408 | 32235 ft | 505 kts | 293° |
| 2026-04-24 23:02 | 52.71460 | -148.62308 | 32228 ft | 506 kts | 293° |
| 2026-04-24 23:02 | 52.75025 | -148.72258 | 32231 ft | 507 kts | 292° |
| 2026-04-24 23:03 | 52.78585 | -148.82228 | 32232 ft | 506 kts | 291° |
| 2026-04-24 23:03 | 52.82132 | -148.92201 | 32234 ft | 505 kts | 292° |
| 2026-04-24 23:04 | 52.85667 | -149.02188 | 32225 ft | 508 kts | 292° |
| 2026-04-24 23:04 | 52.89220 | -149.12262 | 32225 ft | 508 kts | 291° |
| 2026-04-24 23:05 | 52.92757 | -149.22327 | 32222 ft | 506 kts | 291° |
| 2026-04-24 23:05 | 52.96258 | -149.32332 | 32221 ft | 505 kts | 291° |
| 2026-04-24 23:06 | 52.99763 | -149.42394 | 32219 ft | 507 kts | 291° |
| 2026-04-24 23:06 | 53.03265 | -149.52481 | 32215 ft | 505 kts | 291° |
| 2026-04-24 23:07 | 53.06737 | -149.62524 | 32211 ft | 503 kts | 291° |
| 2026-04-24 23:07 | 53.10202 | -149.72597 | 32212 ft | 504 kts | 291° |
| 2026-04-24 23:08 | 53.13656 | -149.82667 | 32185 ft | 503 kts | 290° |
| 2026-04-24 23:08 | 53.17100 | -149.92750 | 32182 ft | 500 kts | 290° |
| 2026-04-24 23:09 | 53.20515 | -150.02800 | 32190 ft | 505 kts | 290° |
| 2026-04-24 23:09 | 53.23948 | -150.12932 | 32186 ft | 501 kts | 291° |
| 2026-04-24 23:10 | 53.27353 | -150.23021 | 32191 ft | 497 kts | 291° |
| 2026-04-24 23:10 | 53.30724 | -150.33064 | 32185 ft | 501 kts | 291° |
| 2026-04-24 23:11 | 53.34109 | -150.43173 | 32179 ft | 496 kts | 291° |
| 2026-04-24 23:11 | 53.37458 | -150.53233 | 32181 ft | 500 kts | 291° |
| 2026-04-24 23:12 | 53.40805 | -150.63313 | 32181 ft | 494 kts | 291° |
| 2026-04-24 23:12 | 53.44114 | -150.73329 | 32184 ft | 494 kts | 290° |
| 2026-04-24 23:13 | 53.47417 | -150.83363 | 32191 ft | 492 kts | 290° |
| 2026-04-24 23:13 | 53.50692 | -150.93359 | 32183 ft | 493 kts | 290° |
| 2026-04-24 23:14 | 53.53973 | -151.03410 | 32186 ft | 492 kts | 290° |
| 2026-04-24 23:14 | 53.57240 | -151.13457 | 32193 ft | 490 kts | 291° |
| 2026-04-24 23:15 | 53.60503 | -151.23540 | 32187 ft | 492 kts | 291° |
| 2026-04-24 23:15 | 53.63743 | -151.33586 | 32172 ft | 488 kts | 291° |
| 2026-04-24 23:16 | 53.66948 | -151.43568 | 32168 ft | 488 kts | 291° |
| 2026-04-24 23:16 | 53.70148 | -151.53577 | 32160 ft | 486 kts | 291° |
| 2026-04-24 23:17 | 53.73336 | -151.63588 | 32148 ft | 485 kts | 291° |
| 2026-04-24 23:17 | 53.76514 | -151.73610 | 32162 ft | 484 kts | 290° |
| 2026-04-24 23:18 | 53.79646 | -151.83524 | 32147 ft | 482 kts | 290° |
| 2026-04-24 23:18 | 53.82808 | -151.93584 | 32149 ft | 484 kts | 291° |
| 2026-04-24 23:19 | 53.85936 | -152.03566 | 32147 ft | 481 kts | 291° |
| 2026-04-24 23:19 | 53.89026 | -152.13472 | 32140 ft | 478 kts | 291° |
| 2026-04-24 23:20 | 53.92139 | -152.23498 | 32135 ft | 480 kts | 291° |
| 2026-04-24 23:20 | 53.95222 | -152.33464 | 32139 ft | 479 kts | 291° |
| 2026-04-24 23:21 | 53.98289 | -152.43419 | 32141 ft | 480 kts | 291° |
| 2026-04-24 23:21 | 54.01369 | -152.53462 | 32138 ft | 481 kts | 291° |
| 2026-04-24 23:22 | 54.04431 | -152.63484 | 32141 ft | 479 kts | 291° |
| 2026-04-24 23:22 | 54.07485 | -152.73523 | 32139 ft | 481 kts | 291° |
| 2026-04-24 23:23 | 54.10520 | -152.83539 | 32131 ft | 477 kts | 291° |
| 2026-04-24 23:23 | 54.13561 | -152.93622 | 32123 ft | 478 kts | 291° |
| 2026-04-24 23:24 | 54.16573 | -153.03648 | 32122 ft | 477 kts | 291° |
| 2026-04-24 23:24 | 54.19587 | -153.13724 | 32115 ft | 477 kts | 291° |
| 2026-04-24 23:25 | 54.22557 | -153.23694 | 32113 ft | 474 kts | 291° |
| 2026-04-24 23:25 | 54.25552 | -153.33794 | 32116 ft | 475 kts | 291° |
| 2026-04-24 23:26 | 54.28506 | -153.43793 | 32116 ft | 472 kts | 291° |
| 2026-04-24 23:26 | 54.31457 | -153.53833 | 32119 ft | 475 kts | 291° |
| 2026-04-24 23:27 | 54.34378 | -153.63803 | 32117 ft | 472 kts | 291° |
| 2026-04-24 23:27 | 54.37300 | -153.73825 | 32118 ft | 470 kts | 290° |
| 2026-04-24 23:28 | 54.40210 | -153.83849 | 32113 ft | 470 kts | 290° |
| 2026-04-24 23:28 | 54.43081 | -153.93779 | 32110 ft | 468 kts | 290° |
| 2026-04-24 23:29 | 54.45960 | -154.03780 | 32117 ft | 469 kts | 290° |
| 2026-04-24 23:29 | 54.48821 | -154.13759 | 32113 ft | 466 kts | 290° |
| 2026-04-24 23:30 | 54.51686 | -154.23796 | 32106 ft | 467 kts | 290° |
| 2026-04-24 23:30 | 54.54523 | -154.33781 | 32116 ft | 468 kts | 291° |
| 2026-04-24 23:31 | 54.57343 | -154.43742 | 32113 ft | 464 kts | 290° |
| 2026-04-24 23:31 | 54.60157 | -154.53732 | 32110 ft | 465 kts | 291° |
| 2026-04-24 23:32 | 54.62959 | -154.63718 | 32106 ft | 466 kts | 290° |
| 2026-04-24 23:32 | 54.65752 | -154.73712 | 32107 ft | 462 kts | 290° |
| 2026-04-24 23:33 | 54.68530 | -154.83701 | 32113 ft | 464 kts | 290° |
| 2026-04-24 23:33 | 54.71294 | -154.93680 | 32095 ft | 462 kts | 290° |
| 2026-04-24 23:34 | 54.74045 | -155.03657 | 32098 ft | 461 kts | 290° |
| 2026-04-24 23:34 | 54.76801 | -155.13696 | 32096 ft | 461 kts | 290° |
| 2026-04-24 23:35 | 54.79524 | -155.23656 | 32088 ft | 461 kts | 290° |
| 2026-04-24 23:35 | 54.82244 | -155.33647 | 32083 ft | 460 kts | 290° |
| 2026-04-24 23:36 | 54.84948 | -155.43625 | 32093 ft | 460 kts | 290° |
| 2026-04-24 23:36 | 54.87642 | -155.53609 | 32087 ft | 459 kts | 290° |
| 2026-04-24 23:37 | 54.90329 | -155.63612 | 32082 ft | 458 kts | 290° |
| 2026-04-24 23:37 | 54.94340 | -155.78626 | 32072 ft | 457 kts | 289° |
| 2026-04-24 23:38 | 54.96981 | -155.88568 | 32074 ft | 457 kts | 289° |
| 2026-04-24 23:38 | 54.99647 | -155.98622 | 32078 ft | 456 kts | 290° |
| 2026-04-24 23:39 | 55.02343 | -156.08553 | 32071 ft | 457 kts | 290° |
| 2026-04-24 23:39 | 55.05059 | -156.18573 | 32071 ft | 458 kts | 290° |
| 2026-04-24 23:40 | 55.07760 | -156.28575 | 32067 ft | 458 kts | 290° |
| 2026-04-24 23:40 | 55.10460 | -156.38612 | 32060 ft | 458 kts | 290° |
| 2026-04-24 23:41 | 55.13134 | -156.48598 | 32055 ft | 458 kts | 290° |
| 2026-04-24 23:41 | 55.15821 | -156.58678 | 32046 ft | 458 kts | 290° |
| 2026-04-24 23:42 | 55.18057 | -156.67094 | 32052 ft | 459 kts | 289° |
| 2026-04-24 23:42 | 55.21160 | -156.78830 | 32055 ft | 459 kts | 289° |
| 2026-04-24 23:43 | 55.23818 | -156.88931 | 32054 ft | 460 kts | 289° |
| 2026-04-24 23:43 | 55.26484 | -156.99109 | 32049 ft | 460 kts | 289° |
| 2026-04-24 23:44 | 55.29122 | -157.09222 | 32040 ft | 459 kts | 289° |
| 2026-04-24 23:44 | 55.31757 | -157.19376 | 32023 ft | 459 kts | 289° |
| 2026-04-24 23:45 | 55.34390 | -157.29559 | 32029 ft | 460 kts | 289° |
| 2026-04-24 23:45 | 55.37024 | -157.39798 | 32020 ft | 461 kts | 289° |
| 2026-04-24 23:46 | 55.39634 | -157.49994 | 32018 ft | 461 kts | 289° |
| 2026-04-24 23:46 | 55.42246 | -157.60239 | 32014 ft | 461 kts | 290° |
| 2026-04-24 23:47 | 55.44847 | -157.70488 | 32013 ft | 460 kts | 289° |
| 2026-04-24 23:47 | 55.47457 | -157.80821 | 32018 ft | 460 kts | 289° |
| 2026-04-24 23:48 | 55.50037 | -157.91083 | 32014 ft | 461 kts | 289° |
| 2026-04-24 23:48 | 55.52616 | -158.01390 | 32015 ft | 461 kts | 289° |
| 2026-04-24 23:49 | 55.55174 | -158.11658 | 32009 ft | 461 kts | 289° |
| 2026-04-24 23:49 | 55.57745 | -158.22031 | 31995 ft | 462 kts | 289° |
| 2026-04-24 23:50 | 55.60301 | -158.32393 | 32005 ft | 462 kts | 289° |
| 2026-04-24 23:50 | 55.62851 | -158.42772 | 31993 ft | 462 kts | 289° |
| 2026-04-24 23:51 | 55.65391 | -158.53165 | 32001 ft | 462 kts | 289° |
| 2026-04-24 23:51 | 55.67916 | -158.63550 | 31985 ft | 463 kts | 289° |
| 2026-04-24 23:52 | 55.70444 | -158.73990 | 31995 ft | 463 kts | 288° |
| 2026-04-24 23:52 | 55.72971 | -158.84476 | 31994 ft | 462 kts | 288° |
| 2026-04-24 23:53 | 55.75469 | -158.94897 | 31992 ft | 462 kts | 289° |
| 2026-04-24 23:53 | 55.77983 | -159.05434 | 31982 ft | 463 kts | 289° |
| 2026-04-24 23:54 | 55.80470 | -159.15904 | 31972 ft | 461 kts | 289° |
| 2026-04-24 23:54 | 55.82946 | -159.26381 | 31972 ft | 462 kts | 289° |
| 2026-04-24 23:55 | 55.85418 | -159.36896 | 31979 ft | 463 kts | 289° |
| 2026-04-24 23:55 | 55.87870 | -159.47376 | 31977 ft | 464 kts | 289° |
| 2026-04-24 23:56 | 55.90337 | -159.57971 | 31950 ft | 463 kts | 289° |
| 2026-04-24 23:56 | 55.92791 | -159.68559 | 31919 ft | 463 kts | 288° |
| 2026-04-24 23:57 | 55.95222 | -159.79102 | 31870 ft | 461 kts | 288° |
| 2026-04-24 23:57 | 55.97634 | -159.89616 | 31861 ft | 461 kts | 288° |
| 2026-04-24 23:58 | 55.99676 | -160.00371 | 31844 ft | 454 kts | 277° |
| 2026-04-24 23:58 | 56.00348 | -160.11423 | 31871 ft | 452 kts | 271° |
| 2026-04-24 23:59 | 56.00843 | -160.22633 | 31917 ft | 454 kts | 271° |
| 2026-04-24 23:59 | 56.01300 | -160.33846 | 31932 ft | 455 kts | 271° |
| 2026-04-25 00:00 | 56.01733 | -160.45035 | 31912 ft | 455 kts | 271° |
| 2026-04-25 00:00 | 56.02149 | -160.56265 | 31906 ft | 455 kts | 271° |
| 2026-04-25 00:01 | 56.02552 | -160.67491 | 31917 ft | 454 kts | 270° |
| 2026-04-25 00:01 | 56.02940 | -160.78662 | 31912 ft | 453 kts | 270° |
| 2026-04-25 00:02 | 56.03319 | -160.89900 | 31915 ft | 454 kts | 270° |
| 2026-04-25 00:02 | 56.03687 | -161.01112 | 31911 ft | 454 kts | 270° |
| 2026-04-25 00:03 | 56.04047 | -161.12390 | 31918 ft | 454 kts | 270° |
| 2026-04-25 00:03 | 56.04394 | -161.23616 | 31925 ft | 453 kts | 270° |
| 2026-04-25 00:04 | 56.04729 | -161.34766 | 31921 ft | 454 kts | 270° |
| 2026-04-25 00:04 | 56.05057 | -161.46048 | 31920 ft | 453 kts | 270° |
| 2026-04-25 00:05 | 56.05372 | -161.57216 | 31918 ft | 454 kts | 270° |
| 2026-04-25 00:05 | 56.05678 | -161.68427 | 31915 ft | 454 kts | 269° |
| 2026-04-25 00:06 | 56.05975 | -161.79668 | 31920 ft | 454 kts | 269° |
| 2026-04-25 00:06 | 56.06261 | -161.90886 | 31912 ft | 453 kts | 269° |
| 2026-04-25 00:07 | 56.06536 | -162.02107 | 31910 ft | 454 kts | 270° |
| 2026-04-25 00:07 | 56.06802 | -162.13370 | 31902 ft | 454 kts | 270° |
| 2026-04-25 00:08 | 56.07058 | -162.24606 | 31900 ft | 454 kts | 270° |
| 2026-04-25 00:08 | 56.07303 | -162.35835 | 31896 ft | 454 kts | 270° |
| 2026-04-25 00:09 | 56.07538 | -162.47110 | 31898 ft | 455 kts | 270° |
| 2026-04-25 00:09 | 56.07765 | -162.58427 | 31892 ft | 456 kts | 270° |
| 2026-04-25 00:10 | 56.07980 | -162.69690 | 31891 ft | 455 kts | 269° |
| 2026-04-25 00:10 | 56.08184 | -162.80953 | 31890 ft | 455 kts | 269° |
| 2026-04-25 00:11 | 56.08347 | -162.90358 | 31889 ft | 456 kts | 269° |
| 2026-04-25 00:11 | 56.08564 | -163.03534 | 31887 ft | 455 kts | 269° |
| 2026-04-25 00:12 | 56.08738 | -163.14850 | 31887 ft | 455 kts | 270° |
| 2026-04-25 00:12 | 56.08902 | -163.26119 | 31886 ft | 455 kts | 270° |
| 2026-04-25 00:13 | 56.09055 | -163.37401 | 31872 ft | 456 kts | 270° |
| 2026-04-25 00:13 | 56.09198 | -163.48633 | 31866 ft | 456 kts | 270° |
| 2026-04-25 00:14 | 56.09331 | -163.59972 | 31868 ft | 456 kts | 270° |
| 2026-04-25 00:14 | 56.09454 | -163.71242 | 31872 ft | 456 kts | 269° |
| 2026-04-25 00:15 | 56.09566 | -163.82570 | 31867 ft | 455 kts | 269° |
| 2026-04-25 00:15 | 56.09668 | -163.93822 | 31868 ft | 455 kts | 269° |
| 2026-04-25 00:16 | 56.09759 | -164.05066 | 31865 ft | 455 kts | 269° |
| 2026-04-25 00:16 | 56.09841 | -164.16389 | 31866 ft | 455 kts | 269° |
| 2026-04-25 00:17 | 56.09912 | -164.27687 | 31865 ft | 456 kts | 269° |
| 2026-04-25 00:17 | 56.09973 | -164.39011 | 31867 ft | 456 kts | 269° |
| 2026-04-25 00:18 | 56.10024 | -164.50342 | 31867 ft | 456 kts | 269° |
| 2026-04-25 00:18 | 56.10064 | -164.61661 | 31868 ft | 456 kts | 269° |
| 2026-04-25 00:19 | 56.10094 | -164.72971 | 31866 ft | 456 kts | 269° |
| 2026-04-25 00:19 | 56.10113 | -164.84271 | 31865 ft | 456 kts | 269° |
| 2026-04-25 00:20 | 56.10123 | -164.95534 | 31864 ft | 455 kts | 269° |
| 2026-04-25 00:20 | 56.10122 | -165.06815 | 31861 ft | 455 kts | 269° |
| 2026-04-25 00:21 | 56.10110 | -165.18138 | 31859 ft | 456 kts | 269° |
| 2026-04-25 00:21 | 56.10088 | -165.29494 | 31855 ft | 457 kts | 269° |
| 2026-04-25 00:22 | 56.10056 | -165.40782 | 31854 ft | 457 kts | 269° |
| 2026-04-25 00:22 | 56.10014 | -165.52122 | 31852 ft | 456 kts | 269° |
| 2026-04-25 00:23 | 56.09961 | -165.63388 | 31849 ft | 456 kts | 269° |
| 2026-04-25 00:23 | 56.09898 | -165.74712 | 31852 ft | 455 kts | 268° |
| 2026-04-25 00:24 | 56.09825 | -165.86024 | 31856 ft | 455 kts | 268° |
| 2026-04-25 00:24 | 56.09742 | -165.97255 | 31860 ft | 455 kts | 268° |
| 2026-04-25 00:25 | 56.09647 | -166.08577 | 31863 ft | 456 kts | 268° |
| 2026-04-25 00:25 | 56.09543 | -166.19897 | 31867 ft | 457 kts | 268° |
| 2026-04-25 00:26 | 56.09428 | -166.31203 | 31858 ft | 456 kts | 268° |
| 2026-04-25 00:26 | 56.09302 | -166.42558 | 31852 ft | 456 kts | 268° |
| 2026-04-25 00:27 | 56.09168 | -166.53821 | 31846 ft | 456 kts | 268° |
| 2026-04-25 00:27 | 56.09022 | -166.65131 | 31841 ft | 455 kts | 268° |
| 2026-04-25 00:28 | 56.08866 | -166.76413 | 31829 ft | 456 kts | 268° |
| 2026-04-25 00:28 | 56.08700 | -166.87669 | 31828 ft | 456 kts | 268° |
| 2026-04-25 00:29 | 56.08524 | -166.98969 | 31826 ft | 455 kts | 268° |
| 2026-04-25 00:29 | 56.08336 | -167.10307 | 31821 ft | 456 kts | 268° |
| 2026-04-25 00:30 | 56.08140 | -167.21544 | 31817 ft | 455 kts | 268° |
| 2026-04-25 00:30 | 56.07932 | -167.32873 | 31813 ft | 455 kts | 267° |
| 2026-04-25 00:31 | 56.07715 | -167.44121 | 31815 ft | 456 kts | 268° |
| 2026-04-25 00:31 | 56.07487 | -167.55415 | 31817 ft | 455 kts | 268° |
| 2026-04-25 00:32 | 56.07250 | -167.66656 | 31820 ft | 456 kts | 266° |
| 2026-04-25 00:32 | 56.07043 | -167.76065 | 31822 ft | 456 kts | 266° |
| 2026-04-25 00:33 | 56.06743 | -167.89215 | 31820 ft | 455 kts | 266° |
| 2026-04-25 00:33 | 56.06472 | -168.00552 | 31819 ft | 456 kts | 266° |
| 2026-04-25 00:34 | 56.06192 | -168.11830 | 31817 ft | 455 kts | 266° |
| 2026-04-25 00:34 | 56.05904 | -168.23050 | 31815 ft | 455 kts | 266° |
| 2026-04-25 00:35 | 56.05606 | -168.34270 | 31812 ft | 454 kts | 266° |
| 2026-04-25 00:35 | 56.05297 | -168.45505 | 31810 ft | 454 kts | 266° |
| 2026-04-25 00:36 | 56.04976 | -168.56784 | 31807 ft | 454 kts | 266° |
| 2026-04-25 00:36 | 56.04646 | -168.68016 | 31808 ft | 454 kts | 265° |
| 2026-04-25 00:37 | 56.04306 | -168.79257 | 31813 ft | 454 kts | 266° |
| 2026-04-25 00:37 | 56.03956 | -168.90503 | 31818 ft | 455 kts | 266° |
| 2026-04-25 00:38 | 56.03596 | -169.01704 | 31816 ft | 455 kts | 266° |
| 2026-04-25 00:38 | 56.03226 | -169.12924 | 31808 ft | 453 kts | 266° |
| 2026-04-25 00:39 | 56.02846 | -169.24144 | 31795 ft | 453 kts | 266° |
| 2026-04-25 00:39 | 56.02456 | -169.35326 | 31790 ft | 453 kts | 266° |
| 2026-04-25 00:40 | 56.02058 | -169.46466 | 31787 ft | 453 kts | 266° |
| 2026-04-25 00:40 | 56.01648 | -169.57667 | 31784 ft | 452 kts | 265° |
| 2026-04-25 00:41 | 56.01227 | -169.68869 | 31786 ft | 453 kts | 265° |
| 2026-04-25 00:41 | 56.00798 | -169.80029 | 31795 ft | 452 kts | 265° |
| 2026-04-25 00:42 | 56.00357 | -169.91209 | 31793 ft | 453 kts | 265° |
| 2026-04-25 00:42 | 55.99983 | -170.00523 | 31793 ft | 453 kts | 265° |
| 2026-04-25 00:43 | 56.00329 | -170.13568 | 31803 ft | 453 kts | 274° |
| 2026-04-25 00:43 | 56.00868 | -170.24675 | 31796 ft | 453 kts | 274° |
| 2026-04-25 00:44 | 56.01349 | -170.35861 | 31786 ft | 454 kts | 273° |
| 2026-04-25 00:44 | 56.01795 | -170.47102 | 31788 ft | 454 kts | 273° |
| 2026-04-25 00:45 | 56.02216 | -170.58330 | 31781 ft | 454 kts | 273° |
| 2026-04-25 00:45 | 56.02618 | -170.69501 | 31787 ft | 454 kts | 272° |
| 2026-04-25 00:46 | 56.03007 | -170.80693 | 31782 ft | 453 kts | 272° |
| 2026-04-25 00:47 | 56.03569 | -170.97492 | 31777 ft | 454 kts | 272° |
| 2026-04-25 00:47 | 56.03930 | -171.08720 | 31767 ft | 454 kts | 272° |
| 2026-04-25 00:48 | 56.04279 | -171.19875 | 31779 ft | 453 kts | 272° |
| 2026-04-25 00:48 | 56.04621 | -171.31157 | 31768 ft | 455 kts | 272° |
| 2026-04-25 00:49 | 56.04952 | -171.42386 | 31764 ft | 453 kts | 272° |
| 2026-04-25 00:49 | 56.05271 | -171.53575 | 31758 ft | 453 kts | 272° |
| 2026-04-25 00:50 | 56.05580 | -171.64772 | 31757 ft | 453 kts | 272° |
| 2026-04-25 00:50 | 56.05881 | -171.76056 | 31757 ft | 454 kts | 271° |
| 2026-04-25 00:51 | 56.06169 | -171.87241 | 31752 ft | 453 kts | 271° |
| 2026-04-25 00:51 | 56.06448 | -171.98485 | 31755 ft | 453 kts | 271° |
| 2026-04-25 00:52 | 56.06715 | -172.09644 | 31755 ft | 452 kts | 271° |
| 2026-04-25 00:52 | 56.06973 | -172.20831 | 31754 ft | 452 kts | 271° |
| 2026-04-25 00:53 | 56.07222 | -172.32080 | 31747 ft | 453 kts | 271° |
| 2026-04-25 00:53 | 56.07460 | -172.43315 | 31752 ft | 453 kts | 271° |
| 2026-04-25 00:54 | 56.07687 | -172.54492 | 31757 ft | 453 kts | 271° |
| 2026-04-25 00:54 | 56.07906 | -172.65736 | 31746 ft | 453 kts | 270° |
| 2026-04-25 00:55 | 56.08114 | -172.77017 | 31732 ft | 452 kts | 270° |
| 2026-04-25 00:55 | 56.08310 | -172.88156 | 31741 ft | 453 kts | 270° |
| 2026-04-25 00:56 | 56.08497 | -172.99348 | 31746 ft | 451 kts | 270° |
| 2026-04-25 00:56 | 56.08673 | -173.10553 | 31734 ft | 453 kts | 270° |
| 2026-04-25 00:57 | 56.08840 | -173.21780 | 31737 ft | 452 kts | 270° |
| 2026-04-25 00:57 | 56.08997 | -173.32987 | 31742 ft | 451 kts | 270° |
| 2026-04-25 00:58 | 56.09143 | -173.44188 | 31736 ft | 451 kts | 270° |
| 2026-04-25 00:58 | 56.09278 | -173.55321 | 31728 ft | 451 kts | 270° |
| 2026-04-25 00:59 | 56.09404 | -173.66515 | 31735 ft | 450 kts | 269° |
| 2026-04-25 00:59 | 56.09519 | -173.77679 | 31739 ft | 450 kts | 269° |
| 2026-04-25 01:00 | 56.09624 | -173.88811 | 31734 ft | 450 kts | 269° |
| 2026-04-25 01:00 | 56.09719 | -173.99979 | 31728 ft | 450 kts | 269° |
| 2026-04-25 01:01 | 56.09805 | -174.11180 | 31738 ft | 449 kts | 269° |
| 2026-04-25 01:01 | 56.09880 | -174.22270 | 31730 ft | 449 kts | 269° |
| 2026-04-25 01:02 | 56.09945 | -174.33435 | 31740 ft | 448 kts | 269° |
| 2026-04-25 01:02 | 56.09999 | -174.44482 | 31745 ft | 448 kts | 269° |
| 2026-04-25 01:03 | 56.10044 | -174.55644 | 31743 ft | 448 kts | 269° |
| 2026-04-25 01:03 | 56.10079 | -174.66762 | 31754 ft | 448 kts | 268° |
| 2026-04-25 01:04 | 56.10104 | -174.77818 | 31750 ft | 447 kts | 268° |
| 2026-04-25 01:04 | 56.10119 | -174.88927 | 31747 ft | 447 kts | 268° |
| 2026-04-25 01:05 | 56.10123 | -175.00098 | 31754 ft | 462 kts | 268° |
| 2026-04-25 01:05 | 56.10121 | -175.05902 | 31935 ft | 467 kts | 268° |
| 2026-04-25 01:05 | 56.10117 | -175.11656 | 32355 ft | 465 kts | 268° |
| 2026-04-25 01:05 | 56.10111 | -175.17438 | 32811 ft | 461 kts | 268° |
| 2026-04-25 01:06 | 56.10102 | -175.23119 | 33187 ft | 460 kts | 268° |
| 2026-04-25 01:06 | 56.10090 | -175.28767 | 33507 ft | 460 kts | 268° |
| 2026-04-25 01:06 | 56.10076 | -175.34495 | 33833 ft | 461 kts | 268° |
| 2026-04-25 01:06 | 56.10058 | -175.40251 | 34171 ft | 461 kts | 268° |
| 2026-04-25 01:07 | 56.10038 | -175.45905 | 34530 ft | 461 kts | 268° |
| 2026-04-25 01:07 | 56.10016 | -175.51623 | 34872 ft | 460 kts | 268° |
| 2026-04-25 01:07 | 56.09991 | -175.57314 | 35165 ft | 460 kts | 268° |
| 2026-04-25 01:07 | 56.09963 | -175.63068 | 35440 ft | 461 kts | 268° |
| 2026-04-25 01:08 | 56.09932 | -175.68742 | 35684 ft | 462 kts | 268° |
| 2026-04-25 01:08 | 56.09863 | -175.80235 | 35750 ft | 461 kts | 268° |
| 2026-04-25 01:09 | 56.09784 | -175.91632 | 35750 ft | 460 kts | 268° |
| 2026-04-25 01:09 | 56.09695 | -176.03012 | 35752 ft | 460 kts | 268° |
| 2026-04-25 01:10 | 56.09594 | -176.14479 | 35755 ft | 460 kts | 268° |
| 2026-04-25 01:10 | 56.09483 | -176.25891 | 35758 ft | 460 kts | 268° |
| 2026-04-25 01:11 | 56.09362 | -176.37270 | 35759 ft | 460 kts | 268° |
| 2026-04-25 01:11 | 56.09230 | -176.48691 | 35762 ft | 460 kts | 268° |
| 2026-04-25 01:12 | 56.09088 | -176.60094 | 35761 ft | 460 kts | 268° |
| 2026-04-25 01:12 | 56.08935 | -176.71501 | 35758 ft | 460 kts | 267° |
| 2026-04-25 01:13 | 56.08772 | -176.82892 | 35760 ft | 459 kts | 266° |
| 2026-04-25 01:13 | 56.08599 | -176.94243 | 35756 ft | 459 kts | 266° |
| 2026-04-25 01:14 | 56.08414 | -177.05679 | 35756 ft | 459 kts | 266° |
| 2026-04-25 01:14 | 56.08219 | -177.17040 | 35756 ft | 460 kts | 266° |
| 2026-04-25 01:15 | 56.08015 | -177.28415 | 35756 ft | 460 kts | 267° |
| 2026-04-25 01:15 | 56.07798 | -177.39861 | 35762 ft | 460 kts | 267° |
| 2026-04-25 01:16 | 56.07573 | -177.51205 | 35769 ft | 460 kts | 267° |
| 2026-04-25 01:16 | 56.07335 | -177.62630 | 35768 ft | 460 kts | 267° |
| 2026-04-25 01:17 | 56.07090 | -177.73933 | 35775 ft | 459 kts | 266° |
| 2026-04-25 01:17 | 56.06831 | -177.85365 | 35775 ft | 459 kts | 266° |
| 2026-04-25 01:18 | 56.06565 | -177.96678 | 35774 ft | 459 kts | 266° |
| 2026-04-25 01:18 | 56.06286 | -178.08078 | 35775 ft | 459 kts | 266° |
| 2026-04-25 01:19 | 56.06095 | -178.15645 | 35774 ft | 459 kts | 266° |
| 2026-04-25 01:19 | 56.05700 | -178.30748 | 35780 ft | 460 kts | 266° |
| 2026-04-25 01:20 | 56.05496 | -178.38301 | 35780 ft | 459 kts | 266° |
| 2026-04-25 01:20 | 56.05072 | -178.53439 | 35784 ft | 459 kts | 266° |
| 2026-04-25 01:21 | 56.04740 | -178.64841 | 35789 ft | 459 kts | 266° |
| 2026-04-25 01:21 | 56.04459 | -178.74240 | 35791 ft | 459 kts | 265° |
| 2026-04-25 01:22 | 56.04050 | -178.87509 | 35796 ft | 459 kts | 265° |
| 2026-04-25 01:22 | 56.03688 | -178.98883 | 35794 ft | 459 kts | 265° |
| 2026-04-25 01:23 | 56.03379 | -179.08308 | 35794 ft | 460 kts | 265° |
| 2026-04-25 01:23 | 56.02934 | -179.21550 | 35797 ft | 459 kts | 265° |
| 2026-04-25 01:24 | 56.02540 | -179.32936 | 35797 ft | 459 kts | 265° |
| 2026-04-25 01:24 | 56.02138 | -179.44246 | 35793 ft | 460 kts | 265° |
| 2026-04-25 01:25 | 56.01725 | -179.55577 | 35794 ft | 459 kts | 264° |
| 2026-04-25 01:25 | 56.01301 | -179.66905 | 35789 ft | 460 kts | 264° |
| 2026-04-25 01:26 | 56.00866 | -179.78279 | 35792 ft | 459 kts | 264° |
| 2026-04-25 01:26 | 56.00422 | -179.89571 | 35793 ft | 460 kts | 264° |
| 2026-04-25 01:27 | 55.99562 | 179.99165 | 35787 ft | 458 kts | 254° |
| 2026-04-25 01:27 | 55.97872 | 179.88290 | 35782 ft | 458 kts | 253° |
| 2026-04-25 01:28 | 55.95203 | 179.71980 | 35784 ft | 457 kts | 252° |
| 2026-04-25 01:28 | 55.93393 | 179.61234 | 35786 ft | 457 kts | 252° |
| 2026-04-25 01:29 | 55.91550 | 179.50441 | 35788 ft | 456 kts | 252° |
| 2026-04-25 01:29 | 55.89695 | 179.39685 | 35791 ft | 457 kts | 252° |
| 2026-04-25 01:30 | 55.87828 | 179.28938 | 35799 ft | 457 kts | 252° |
| 2026-04-25 01:30 | 55.85946 | 179.18185 | 35809 ft | 457 kts | 252° |
| 2026-04-25 01:31 | 55.84058 | 179.07471 | 35802 ft | 455 kts | 251° |
| 2026-04-25 01:31 | 55.82156 | 178.96735 | 35818 ft | 455 kts | 251° |
| 2026-04-25 01:32 | 55.80257 | 178.86089 | 35817 ft | 455 kts | 251° |
| 2026-04-25 01:32 | 55.78338 | 178.75392 | 35808 ft | 454 kts | 251° |
| 2026-04-25 01:33 | 55.76416 | 178.64741 | 35806 ft | 455 kts | 251° |
| 2026-04-25 01:33 | 55.74484 | 178.54092 | 35807 ft | 455 kts | 251° |
| 2026-04-25 01:34 | 55.72546 | 178.43471 | 35810 ft | 455 kts | 251° |
| 2026-04-25 01:34 | 55.70606 | 178.32904 | 35813 ft | 454 kts | 251° |
| 2026-04-25 01:35 | 55.68650 | 178.22310 | 35809 ft | 455 kts | 251° |
| 2026-04-25 01:35 | 55.66679 | 178.11690 | 35809 ft | 454 kts | 251° |
| 2026-04-25 01:36 | 55.64713 | 178.01164 | 35816 ft | 454 kts | 251° |
| 2026-04-25 01:36 | 55.62727 | 177.90585 | 35814 ft | 454 kts | 251° |
| 2026-04-25 01:37 | 55.60731 | 177.80013 | 35811 ft | 455 kts | 251° |
| 2026-04-25 01:37 | 55.58718 | 177.69412 | 35814 ft | 455 kts | 251° |
| 2026-04-25 01:38 | 55.56710 | 177.58888 | 35816 ft | 454 kts | 251° |
| 2026-04-25 01:38 | 55.54691 | 177.48370 | 35820 ft | 454 kts | 251° |
| 2026-04-25 01:39 | 55.52680 | 177.37953 | 35816 ft | 453 kts | 251° |
| 2026-04-25 01:39 | 55.50632 | 177.27400 | 35823 ft | 454 kts | 250° |
| 2026-04-25 01:40 | 55.48592 | 177.16946 | 35821 ft | 454 kts | 250° |
| 2026-04-25 01:40 | 55.46536 | 177.06465 | 35821 ft | 454 kts | 250° |
| 2026-04-25 01:41 | 55.44481 | 176.96046 | 35820 ft | 453 kts | 250° |
| 2026-04-25 01:41 | 55.42402 | 176.85562 | 35825 ft | 454 kts | 250° |
| 2026-04-25 01:42 | 55.40321 | 176.75122 | 35826 ft | 454 kts | 250° |
| 2026-04-25 01:42 | 55.38231 | 176.64694 | 35828 ft | 454 kts | 250° |
| 2026-04-25 01:43 | 55.36138 | 176.54311 | 35821 ft | 455 kts | 250° |
| 2026-04-25 01:43 | 55.34024 | 176.43867 | 35822 ft | 454 kts | 250° |
| 2026-04-25 01:44 | 55.31913 | 176.33504 | 35824 ft | 454 kts | 249° |
| 2026-04-25 01:44 | 55.29792 | 176.23138 | 35824 ft | 453 kts | 249° |
| 2026-04-25 01:45 | 55.27651 | 176.12735 | 35826 ft | 454 kts | 249° |
| 2026-04-25 01:45 | 55.25506 | 176.02361 | 35829 ft | 454 kts | 249° |
| 2026-04-25 01:46 | 55.23358 | 175.92029 | 35834 ft | 453 kts | 249° |
| 2026-04-25 01:46 | 55.21196 | 175.81682 | 35835 ft | 455 kts | 249° |
| 2026-04-25 01:47 | 55.19036 | 175.71399 | 35835 ft | 453 kts | 249° |
| 2026-04-25 01:47 | 55.16859 | 175.61089 | 35838 ft | 455 kts | 249° |
| 2026-04-25 01:48 | 55.14671 | 175.50771 | 35833 ft | 455 kts | 249° |
| 2026-04-25 01:48 | 55.12470 | 175.40453 | 35837 ft | 454 kts | 249° |
| 2026-04-25 01:49 | 55.10260 | 175.30139 | 35831 ft | 453 kts | 248° |
| 2026-04-25 01:49 | 55.08046 | 175.19861 | 35824 ft | 453 kts | 248° |
| 2026-04-25 01:50 | 55.05830 | 175.09628 | 35821 ft | 454 kts | 248° |
| 2026-04-25 01:50 | 55.03606 | 174.99408 | 35817 ft | 454 kts | 248° |
| 2026-04-25 01:51 | 55.01357 | 174.89121 | 35821 ft | 454 kts | 248° |
| 2026-04-25 01:51 | 54.99110 | 174.78894 | 35816 ft | 455 kts | 248° |
| 2026-04-25 01:52 | 54.96851 | 174.68665 | 35822 ft | 454 kts | 249° |
| 2026-04-25 01:52 | 54.94590 | 174.58478 | 35816 ft | 453 kts | 248° |
| 2026-04-25 01:53 | 54.92319 | 174.48291 | 35820 ft | 455 kts | 248° |
| 2026-04-25 01:53 | 54.90039 | 174.38119 | 35812 ft | 455 kts | 248° |
| 2026-04-25 01:54 | 54.87753 | 174.27968 | 35827 ft | 454 kts | 248° |
| 2026-04-25 01:54 | 54.85448 | 174.17780 | 35819 ft | 453 kts | 248° |
| 2026-04-25 01:55 | 54.83143 | 174.07640 | 35826 ft | 455 kts | 248° |
| 2026-04-25 01:55 | 54.80821 | 173.97476 | 35823 ft | 454 kts | 248° |
| 2026-04-25 01:56 | 54.78503 | 173.87384 | 35832 ft | 455 kts | 248° |
| 2026-04-25 01:56 | 54.76169 | 173.77260 | 35831 ft | 454 kts | 248° |
| 2026-04-25 01:57 | 54.72648 | 173.62087 | 35840 ft | 454 kts | 248° |
| 2026-04-25 01:58 | 54.70300 | 173.52026 | 35820 ft | 455 kts | 248° |
| 2026-04-25 01:58 | 54.67919 | 173.41876 | 35820 ft | 455 kts | 248° |
| 2026-04-25 01:59 | 54.65555 | 173.31841 | 35823 ft | 455 kts | 247° |
| 2026-04-25 01:59 | 54.63160 | 173.21724 | 35819 ft | 455 kts | 247° |
| 2026-04-25 02:00 | 54.60773 | 173.11685 | 35823 ft | 455 kts | 247° |
| 2026-04-25 02:00 | 54.58375 | 173.01653 | 35814 ft | 454 kts | 247° |
| 2026-04-25 02:01 | 54.55979 | 172.91669 | 35809 ft | 455 kts | 247° |
| 2026-04-25 02:01 | 54.53550 | 172.81596 | 35813 ft | 454 kts | 247° |
| 2026-04-25 02:02 | 54.51138 | 172.71639 | 35806 ft | 456 kts | 247° |
| 2026-04-25 02:02 | 54.48696 | 172.61607 | 35811 ft | 456 kts | 247° |
| 2026-04-25 02:03 | 54.46244 | 172.51579 | 35805 ft | 455 kts | 247° |
| 2026-04-25 02:03 | 54.43796 | 172.41612 | 35797 ft | 455 kts | 247° |
| 2026-04-25 02:04 | 54.41340 | 172.31657 | 35795 ft | 456 kts | 246° |
| 2026-04-25 02:04 | 54.38856 | 172.21635 | 35791 ft | 456 kts | 246° |
| 2026-04-25 02:05 | 54.36386 | 172.11719 | 35790 ft | 456 kts | 246° |
| 2026-04-25 02:05 | 54.33900 | 172.01776 | 35787 ft | 456 kts | 246° |
| 2026-04-25 02:06 | 54.31407 | 171.91852 | 35784 ft | 455 kts | 246° |
| 2026-04-25 02:06 | 54.28887 | 171.81867 | 35784 ft | 457 kts | 246° |
| 2026-04-25 02:07 | 54.26382 | 171.71983 | 35783 ft | 457 kts | 246° |
| 2026-04-25 02:07 | 54.23860 | 171.62082 | 35782 ft | 456 kts | 246° |
| 2026-04-25 02:08 | 54.21329 | 171.52184 | 35783 ft | 457 kts | 246° |
| 2026-04-25 02:08 | 54.18788 | 171.42293 | 35780 ft | 456 kts | 246° |
| 2026-04-25 02:09 | 54.16242 | 171.32425 | 35782 ft | 457 kts | 245° |
| 2026-04-25 02:09 | 54.13674 | 171.22514 | 35784 ft | 458 kts | 245° |
| 2026-04-25 02:10 | 54.11112 | 171.12672 | 35780 ft | 457 kts | 245° |
| 2026-04-25 02:10 | 54.08530 | 171.02797 | 35779 ft | 457 kts | 245° |
| 2026-04-25 02:11 | 54.05938 | 170.92925 | 35770 ft | 457 kts | 245° |
| 2026-04-25 02:11 | 54.03346 | 170.83098 | 35763 ft | 457 kts | 245° |
| 2026-04-25 02:12 | 54.00763 | 170.73346 | 35764 ft | 457 kts | 245° |
| 2026-04-25 02:12 | 53.98140 | 170.63487 | 35755 ft | 457 kts | 245° |
| 2026-04-25 02:13 | 53.95538 | 170.53744 | 35754 ft | 458 kts | 245° |
| 2026-04-25 02:13 | 53.92905 | 170.43932 | 35755 ft | 459 kts | 245° |
| 2026-04-25 02:14 | 53.90274 | 170.34169 | 35749 ft | 458 kts | 245° |
| 2026-04-25 02:14 | 53.87627 | 170.24388 | 35764 ft | 458 kts | 245° |
| 2026-04-25 02:15 | 53.84976 | 170.14635 | 35749 ft | 457 kts | 245° |
| 2026-04-25 02:15 | 53.82319 | 170.04900 | 35752 ft | 458 kts | 245° |
| 2026-04-25 02:16 | 53.79653 | 169.95174 | 35759 ft | 458 kts | 245° |
| 2026-04-25 02:16 | 53.76962 | 169.85394 | 35750 ft | 458 kts | 245° |
| 2026-04-25 02:17 | 53.74285 | 169.75708 | 35752 ft | 459 kts | 245° |
| 2026-04-25 02:17 | 53.71584 | 169.65979 | 35751 ft | 459 kts | 245° |
| 2026-04-25 02:18 | 53.68879 | 169.56274 | 35748 ft | 459 kts | 245° |
| 2026-04-25 02:18 | 53.66157 | 169.46552 | 35750 ft | 459 kts | 245° |
| 2026-04-25 02:19 | 53.63434 | 169.36887 | 35745 ft | 459 kts | 243° |
| 2026-04-25 02:19 | 53.60490 | 169.27452 | 35745 ft | 459 kts | 242° |
| 2026-04-25 02:20 | 53.57490 | 169.18004 | 35739 ft | 458 kts | 241° |
| 2026-04-25 02:20 | 53.54482 | 169.08600 | 35744 ft | 459 kts | 241° |
| 2026-04-25 02:21 | 53.51466 | 168.99219 | 35738 ft | 458 kts | 242° |
| 2026-04-25 02:21 | 53.48449 | 168.89876 | 35739 ft | 457 kts | 241° |
| 2026-04-25 02:22 | 53.45409 | 168.80504 | 35739 ft | 459 kts | 241° |
| 2026-04-25 02:22 | 53.42360 | 168.71140 | 35735 ft | 459 kts | 241° |
| 2026-04-25 02:23 | 53.39304 | 168.61793 | 35730 ft | 459 kts | 241° |
| 2026-04-25 02:23 | 53.36233 | 168.52437 | 35732 ft | 459 kts | 241° |
| 2026-04-25 02:24 | 53.33176 | 168.43156 | 35736 ft | 459 kts | 242° |
| 2026-04-25 02:24 | 53.30091 | 168.33830 | 35742 ft | 459 kts | 240° |
| 2026-04-25 02:25 | 53.27009 | 168.24577 | 35745 ft | 459 kts | 240° |
| 2026-04-25 02:25 | 53.23912 | 168.15317 | 35742 ft | 458 kts | 240° |
| 2026-04-25 02:26 | 53.20799 | 168.06041 | 35739 ft | 459 kts | 240° |
| 2026-04-25 02:26 | 53.17687 | 167.96806 | 35745 ft | 460 kts | 240° |
| 2026-04-25 02:27 | 53.14548 | 167.87521 | 35740 ft | 459 kts | 240° |
| 2026-04-25 02:27 | 53.11420 | 167.78308 | 35739 ft | 460 kts | 240° |
| 2026-04-25 02:28 | 53.08273 | 167.69069 | 35734 ft | 459 kts | 240° |
| 2026-04-25 02:28 | 53.05143 | 167.59917 | 35725 ft | 460 kts | 240° |
| 2026-04-25 02:29 | 53.01979 | 167.50700 | 35722 ft | 459 kts | 240° |
| 2026-04-25 02:29 | 52.98822 | 167.41534 | 35724 ft | 460 kts | 241° |
| 2026-04-25 02:30 | 52.95650 | 167.32361 | 35731 ft | 461 kts | 240° |
| 2026-04-25 02:30 | 52.92473 | 167.23206 | 35734 ft | 459 kts | 240° |
| 2026-04-25 02:31 | 52.89285 | 167.14056 | 35735 ft | 460 kts | 240° |
| 2026-04-25 02:31 | 52.86101 | 167.04950 | 35736 ft | 459 kts | 240° |
| 2026-04-25 02:32 | 52.82895 | 166.95811 | 35730 ft | 461 kts | 240° |
| 2026-04-25 02:32 | 52.79689 | 166.86708 | 35715 ft | 460 kts | 240° |
| 2026-04-25 02:33 | 52.76472 | 166.77609 | 35720 ft | 460 kts | 240° |
| 2026-04-25 02:33 | 52.73252 | 166.68530 | 35724 ft | 460 kts | 240° |
| 2026-04-25 02:34 | 52.70034 | 166.59494 | 35732 ft | 461 kts | 240° |
| 2026-04-25 02:34 | 52.66783 | 166.50397 | 35733 ft | 460 kts | 240° |
| 2026-04-25 02:35 | 52.63544 | 166.41365 | 35731 ft | 461 kts | 240° |
| 2026-04-25 02:35 | 52.60283 | 166.32303 | 35740 ft | 462 kts | 239° |
| 2026-04-25 02:36 | 52.57018 | 166.23265 | 35736 ft | 461 kts | 239° |
| 2026-04-25 02:36 | 52.53767 | 166.14299 | 35738 ft | 461 kts | 239° |
| 2026-04-25 02:37 | 52.50495 | 166.05304 | 35744 ft | 462 kts | 239° |
| 2026-04-25 02:37 | 52.47203 | 165.96289 | 35739 ft | 460 kts | 239° |
| 2026-04-25 02:38 | 52.43916 | 165.87317 | 35736 ft | 460 kts | 239° |
| 2026-04-25 02:38 | 52.40624 | 165.78365 | 35743 ft | 461 kts | 239° |
| 2026-04-25 02:39 | 52.37328 | 165.69434 | 35734 ft | 460 kts | 239° |
| 2026-04-25 02:39 | 52.34032 | 165.60535 | 35736 ft | 460 kts | 239° |
| 2026-04-25 02:40 | 52.30733 | 165.51657 | 35736 ft | 461 kts | 239° |
| 2026-04-25 02:40 | 52.27397 | 165.42714 | 35738 ft | 460 kts | 239° |
| 2026-04-25 02:41 | 52.24074 | 165.33833 | 35738 ft | 462 kts | 239° |
| 2026-04-25 02:41 | 52.20744 | 165.24968 | 35725 ft | 459 kts | 239° |
| 2026-04-25 02:42 | 52.17399 | 165.16090 | 35722 ft | 460 kts | 239° |
| 2026-04-25 02:42 | 52.14071 | 165.07294 | 35719 ft | 459 kts | 239° |
| 2026-04-25 02:43 | 52.10716 | 164.98453 | 35723 ft | 459 kts | 239° |
| 2026-04-25 02:43 | 52.07368 | 164.89661 | 35728 ft | 460 kts | 239° |
| 2026-04-25 02:44 | 52.04008 | 164.80870 | 35728 ft | 459 kts | 239° |
| 2026-04-25 02:44 | 52.00644 | 164.72096 | 35722 ft | 459 kts | 239° |
| 2026-04-25 02:45 | 51.97272 | 164.63335 | 35716 ft | 460 kts | 239° |
| 2026-04-25 02:45 | 51.93884 | 164.54561 | 35719 ft | 461 kts | 239° |
| 2026-04-25 02:46 | 51.90513 | 164.45859 | 35732 ft | 460 kts | 239° |
| 2026-04-25 02:46 | 51.87108 | 164.37102 | 35741 ft | 460 kts | 239° |
| 2026-04-25 02:47 | 51.83711 | 164.28392 | 35746 ft | 461 kts | 238° |
| 2026-04-25 02:47 | 51.80293 | 164.19663 | 35743 ft | 460 kts | 238° |
| 2026-04-25 02:48 | 51.76881 | 164.10973 | 35736 ft | 459 kts | 238° |
| 2026-04-25 02:48 | 51.73474 | 164.02328 | 35747 ft | 460 kts | 238° |
| 2026-04-25 02:49 | 51.70031 | 163.93623 | 35746 ft | 461 kts | 238° |
| 2026-04-25 02:49 | 51.66607 | 163.84993 | 35749 ft | 462 kts | 238° |
| 2026-04-25 02:50 | 51.63166 | 163.76349 | 35735 ft | 461 kts | 238° |
| 2026-04-25 02:50 | 51.59703 | 163.67677 | 35745 ft | 461 kts | 238° |
| 2026-04-25 02:51 | 51.56246 | 163.59052 | 35725 ft | 461 kts | 238° |
| 2026-04-25 02:51 | 51.52770 | 163.50406 | 35731 ft | 461 kts | 238° |
| 2026-04-25 02:52 | 51.49303 | 163.41811 | 35722 ft | 461 kts | 238° |
| 2026-04-25 02:52 | 51.45834 | 163.33240 | 35725 ft | 461 kts | 238° |
| 2026-04-25 02:53 | 51.42355 | 163.24674 | 35735 ft | 461 kts | 238° |
| 2026-04-25 02:53 | 51.38879 | 163.16141 | 35724 ft | 461 kts | 238° |
| 2026-04-25 02:54 | 51.35381 | 163.07582 | 35729 ft | 461 kts | 238° |
| 2026-04-25 02:54 | 51.31855 | 162.98987 | 35736 ft | 462 kts | 238° |
| 2026-04-25 02:55 | 51.28358 | 162.90488 | 35729 ft | 462 kts | 238° |
| 2026-04-25 02:55 | 51.24824 | 162.81928 | 35735 ft | 463 kts | 238° |
| 2026-04-25 02:56 | 51.21292 | 162.73402 | 35719 ft | 461 kts | 238° |
| 2026-04-25 02:56 | 51.17764 | 162.64912 | 35712 ft | 461 kts | 238° |
| 2026-04-25 02:57 | 51.14239 | 162.56456 | 35712 ft | 461 kts | 238° |
| 2026-04-25 02:57 | 51.10715 | 162.48033 | 35715 ft | 461 kts | 238° |
| 2026-04-25 02:58 | 51.07168 | 162.39580 | 35724 ft | 462 kts | 238° |
| 2026-04-25 02:58 | 51.03586 | 162.31071 | 35732 ft | 463 kts | 237° |
| 2026-04-25 02:59 | 51.00023 | 162.22638 | 35738 ft | 463 kts | 237° |
| 2026-04-25 02:59 | 50.96436 | 162.14174 | 35736 ft | 464 kts | 237° |
| 2026-04-25 03:00 | 50.92857 | 162.05756 | 35730 ft | 463 kts | 237° |
| 2026-04-25 03:00 | 50.89242 | 161.97279 | 35732 ft | 463 kts | 237° |
| 2026-04-25 03:01 | 50.85651 | 161.88888 | 35742 ft | 463 kts | 237° |
| 2026-04-25 03:01 | 50.82059 | 161.80521 | 35733 ft | 460 kts | 237° |
| 2026-04-25 03:02 | 50.78473 | 161.72194 | 35733 ft | 463 kts | 237° |
| 2026-04-25 03:02 | 50.74867 | 161.63846 | 35737 ft | 462 kts | 238° |
| 2026-04-25 03:03 | 50.71244 | 161.55487 | 35733 ft | 461 kts | 238° |
| 2026-04-25 03:03 | 50.67644 | 161.47208 | 35731 ft | 460 kts | 238° |
| 2026-04-25 03:04 | 50.64023 | 161.38905 | 35734 ft | 460 kts | 238° |
| 2026-04-25 03:04 | 50.60408 | 161.30643 | 35740 ft | 462 kts | 237° |
| 2026-04-25 03:05 | 50.54972 | 161.18269 | 35743 ft | 460 kts | 237° |
| 2026-04-25 03:05 | 50.51334 | 161.10020 | 35740 ft | 460 kts | 237° |
| 2026-04-25 03:06 | 50.47689 | 161.01782 | 35739 ft | 460 kts | 237° |
| 2026-04-25 03:06 | 50.44038 | 160.93553 | 35735 ft | 460 kts | 237° |
| 2026-04-25 03:07 | 50.40403 | 160.85388 | 35748 ft | 462 kts | 237° |
| 2026-04-25 03:07 | 50.36724 | 160.77151 | 35738 ft | 461 kts | 237° |
| 2026-04-25 03:08 | 50.33051 | 160.68950 | 35730 ft | 461 kts | 237° |
| 2026-04-25 03:08 | 50.29382 | 160.60786 | 35715 ft | 460 kts | 237° |
| 2026-04-25 03:09 | 50.20139 | 160.40329 | 35726 ft | 461 kts | 237° |
| 2026-04-25 03:09 | 50.05277 | 160.07913 | 35757 ft | 459 kts | 236° |
| 2026-04-25 03:10 | 49.90322 | 159.75702 | 35730 ft | 463 kts | 236° |
| 2026-04-25 03:10 | 49.75232 | 159.43596 | 35723 ft | 461 kts | 237° |
| 2026-04-25 03:11 | 49.59965 | 159.12073 | 35825 ft | 461 kts | 235° |
| 2026-04-25 03:11 | 49.44331 | 158.80574 | 35735 ft | 466 kts | 235° |
| 2026-04-25 03:12 | 49.28811 | 158.49605 | 35745 ft | 455 kts | 235° |
| 2026-04-25 03:12 | 49.21063 | 158.34265 | 35881 ft | 458 kts | 234° |
| 2026-04-25 03:12 | 49.13200 | 158.18791 | 35953 ft | 464 kts | 234° |
| 2026-04-25 03:13 | 49.05314 | 158.03369 | 35782 ft | 466 kts | 234° |
| 2026-04-25 03:13 | 48.97443 | 157.88072 | 35664 ft | 462 kts | 235° |
| 2026-04-25 03:13 | 48.95588 | 157.84480 | 35683 ft | 459 kts | 235° |
| 2026-04-25 03:14 | 48.80047 | 157.54550 | 36026 ft | 455 kts | 235° |
| 2026-04-25 03:14 | 48.72091 | 157.39346 | 35751 ft | 463 kts | 235° |
| 2026-04-25 03:14 | 48.64085 | 157.24152 | 35740 ft | 466 kts | 234° |
| 2026-04-25 03:15 | 48.56081 | 157.09050 | 36048 ft | 460 kts | 234° |
| 2026-04-25 03:15 | 48.48116 | 156.94102 | 35779 ft | 455 kts | 234° |
| 2026-04-25 03:15 | 48.32323 | 156.64685 | 36077 ft | 458 kts | 235° |
| 2026-04-25 03:16 | 48.24232 | 156.49736 | 35854 ft | 465 kts | 235° |
| 2026-04-25 03:16 | 48.16073 | 156.34763 | 35738 ft | 465 kts | 234° |
| 2026-04-25 03:16 | 48.07922 | 156.19891 | 36092 ft | 456 kts | 234° |
| 2026-04-25 03:16 | 47.99914 | 156.05345 | 35880 ft | 454 kts | 234° |
| 2026-04-25 03:17 | 47.91893 | 155.90843 | 35752 ft | 460 kts | 234° |
| 2026-04-25 03:17 | 47.83761 | 155.76227 | 36092 ft | 463 kts | 234° |
| 2026-04-25 03:17 | 47.75516 | 155.61496 | 35919 ft | 464 kts | 234° |
| 2026-04-25 03:17 | 47.67224 | 155.46773 | 35744 ft | 460 kts | 234° |
| 2026-04-25 03:18 | 47.59136 | 155.32484 | 36082 ft | 451 kts | 234° |
| 2026-04-25 03:18 | 47.51019 | 155.18195 | 36044 ft | 456 kts | 234° |
| 2026-04-25 03:18 | 47.42881 | 155.03946 | 35775 ft | 465 kts | 234° |
| 2026-04-25 03:18 | 47.34516 | 154.89401 | 36033 ft | 465 kts | 234° |
| 2026-04-25 03:19 | 47.17991 | 154.60898 | 35814 ft | 453 kts | 234° |
| 2026-04-25 03:19 | 47.09871 | 154.46989 | 35980 ft | 450 kts | 235° |
| 2026-04-25 03:19 | 47.01647 | 154.32958 | 36196 ft | 455 kts | 234° |
| 2026-04-25 03:20 | 46.93315 | 154.18825 | 35866 ft | 463 kts | 234° |
| 2026-04-25 03:20 | 46.84902 | 154.04652 | 35954 ft | 462 kts | 234° |
| 2026-04-25 03:20 | 46.76613 | 153.90761 | 36204 ft | 453 kts | 234° |
| 2026-04-25 03:20 | 46.68344 | 153.76964 | 35871 ft | 449 kts | 234° |
| 2026-04-25 03:21 | 46.60188 | 153.63403 | 35985 ft | 453 kts | 234° |
| 2026-04-25 03:21 | 46.51869 | 153.49646 | 36227 ft | 458 kts | 235° |
| 2026-04-25 03:21 | 46.43348 | 153.35635 | 35929 ft | 462 kts | 235° |
| 2026-04-25 03:21 | 46.34874 | 153.21797 | 35970 ft | 457 kts | 234° |
| 2026-04-25 03:22 | 46.27967 | 153.10562 | 36202 ft | 448 kts | 234° |
| 2026-04-25 03:22 | 46.21840 | 153.00624 | 35917 ft | 448 kts | 234° |
| 2026-04-25 03:22 | 46.13512 | 152.87277 | 36231 ft | 452 kts | 234° |
| 2026-04-25 03:22 | 46.05005 | 152.73767 | 36120 ft | 459 kts | 234° |
| 2026-04-25 03:23 | 45.96495 | 152.60323 | 35905 ft | 463 kts | 234° |
| 2026-04-25 03:23 | 45.87862 | 152.46762 | 36199 ft | 456 kts | 234° |
| 2026-04-25 03:23 | 45.71044 | 152.20499 | 35983 ft | 447 kts | 234° |
| 2026-04-25 03:24 | 45.53995 | 151.94099 | 36277 ft | 457 kts | 234° |
| 2026-04-25 03:24 | 45.45297 | 151.80753 | 36153 ft | 456 kts | 234° |
| 2026-04-25 03:24 | 45.36758 | 151.67722 | 35970 ft | 450 kts | 234° |
| 2026-04-25 03:25 | 45.28423 | 151.55054 | 36192 ft | 441 kts | 234° |
| 2026-04-25 03:25 | 45.20053 | 151.42355 | 36273 ft | 445 kts | 234° |
| 2026-04-25 03:25 | 45.11482 | 151.29419 | 36141 ft | 452 kts | 233° |
| 2026-04-25 03:25 | 45.02795 | 151.16393 | 36000 ft | 458 kts | 233° |
| 2026-04-25 03:26 | 44.94134 | 151.03482 | 36290 ft | 452 kts | 233° |
| 2026-04-25 03:26 | 44.85503 | 150.90672 | 36225 ft | 443 kts | 233° |
| 2026-04-25 03:26 | 44.77168 | 150.78343 | 36027 ft | 440 kts | 233° |
| 2026-04-25 03:26 | 44.68640 | 150.65762 | 36109 ft | 445 kts | 233° |
| 2026-04-25 03:27 | 44.60104 | 150.53241 | 36293 ft | 450 kts | 233° |
| 2026-04-25 03:27 | 44.51359 | 150.40488 | 36265 ft | 451 kts | 233° |
| 2026-04-25 03:27 | 44.42802 | 150.28076 | 36056 ft | 446 kts | 232° |
| 2026-04-25 03:27 | 44.34212 | 150.15669 | 36111 ft | 438 kts | 232° |
| 2026-04-25 03:28 | 44.25826 | 150.03584 | 36274 ft | 439 kts | 232° |
| 2026-04-25 03:28 | 44.17322 | 149.91377 | 36317 ft | 445 kts | 232° |
| 2026-04-25 03:28 | 44.08570 | 149.78888 | 36157 ft | 450 kts | 232° |
| 2026-04-25 03:28 | 43.99876 | 149.66554 | 36062 ft | 447 kts | 232° |
| 2026-04-25 03:29 | 43.92968 | 149.56796 | 36306 ft | 439 kts | 232° |
| 2026-04-25 03:29 | 43.85879 | 149.46805 | 36200 ft | 433 kts | 232° |
| 2026-04-25 03:29 | 43.77459 | 149.34966 | 36080 ft | 438 kts | 231° |
| 2026-04-25 03:29 | 43.68814 | 149.22865 | 36153 ft | 445 kts | 231° |
| 2026-04-25 03:30 | 43.60075 | 149.10702 | 36361 ft | 447 kts | 231° |
| 2026-04-25 03:30 | 43.51398 | 148.98689 | 36263 ft | 442 kts | 231° |
| 2026-04-25 03:30 | 43.42823 | 148.86873 | 36088 ft | 434 kts | 231° |
| 2026-04-25 03:30 | 43.34463 | 148.75383 | 36172 ft | 431 kts | 232° |
| 2026-04-25 03:31 | 43.29944 | 148.69176 | 36055 ft | 433 kts | 232° |
| 2026-04-25 03:31 | 42.95906 | 148.22960 | 36497 ft | 438 kts | 231° |
| 2026-04-25 03:31 | 42.61092 | 147.76511 | 36265 ft | 443 kts | 231° |
| 2026-04-25 03:31 | 42.25942 | 147.30403 | 36309 ft | 437 kts | 231° |
| 2026-04-25 03:32 | 41.91604 | 146.85959 | 36362 ft | 421 kts | 231° |
| 2026-04-25 03:32 | 41.58260 | 146.43365 | 36174 ft | 410 kts | 231° |
| 2026-04-25 03:32 | 41.25041 | 146.01497 | 36792 ft | 414 kts | 231° |
| 2026-04-25 03:32 | 40.91386 | 145.59772 | 35940 ft | 421 kts | 231° |
| 2026-04-25 03:33 | 40.56403 | 145.17081 | 36976 ft | 421 kts | 230° |
| 2026-04-25 03:33 | 40.22721 | 144.76562 | 36055 ft | 412 kts | 231° |
| 2026-04-25 03:33 | 39.89399 | 144.37024 | 36638 ft | 395 kts | 231° |
| 2026-04-25 03:33 | 39.57393 | 143.99477 | 35999 ft | 391 kts | 231° |
| 2026-04-25 03:34 | 39.24380 | 143.61272 | 36990 ft | 398 kts | 231° |
| 2026-04-25 03:34 | 39.02408 | 143.36169 | 36960 ft | 401 kts | 231° |
| 2026-04-25 03:34 | 39.00327 | 143.33801 | 36688 ft | 398 kts | 230° |
| 2026-04-25 03:34 | 38.96300 | 143.29308 | 36186 ft | 392 kts | 227° |
| 2026-04-25 03:35 | 38.91549 | 143.25694 | 36275 ft | 411 kts | 214° |
| 2026-04-25 03:35 | 38.88839 | 143.24417 | 36276 ft | 422 kts | 209° |
| 2026-04-25 03:35 | 38.86010 | 143.23317 | 36277 ft | 424 kts | 207° |
| 2026-04-25 03:36 | 38.80294 | 143.21338 | 36259 ft | 426 kts | 206° |
| 2026-04-25 03:36 | 38.74569 | 143.19638 | 36261 ft | 427 kts | 205° |
| 2026-04-25 03:37 | 38.68726 | 143.18123 | 36262 ft | 427 kts | 203° |
| 2026-04-25 03:37 | 38.62866 | 143.16715 | 36262 ft | 428 kts | 203° |
| 2026-04-25 03:38 | 38.57096 | 143.15184 | 36267 ft | 419 kts | 210° |
| 2026-04-25 03:38 | 38.51628 | 143.12854 | 36269 ft | 415 kts | 211° |
| 2026-04-25 03:39 | 37.91032 | 142.86997 | 37758 ft | 405 kts | 212° |
| 2026-04-25 03:39 | 37.54445 | 142.71651 | 35102 ft | 397 kts | 214° |
| 2026-04-25 03:39 | 37.24504 | 142.59184 | 37658 ft | 390 kts | 215° |
| 2026-04-25 03:40 | 36.82866 | 142.41798 | 34612 ft | 399 kts | 214° |
| 2026-04-25 03:40 | 36.40949 | 142.24589 | 38174 ft | 401 kts | 214° |
| 2026-04-25 03:40 | 36.24767 | 142.18018 | 37549 ft | 404 kts | 214° |
| 2026-04-25 03:40 | 36.22087 | 142.16940 | 37267 ft | 400 kts | 213° |
| 2026-04-25 03:41 | 36.19445 | 142.15878 | 36983 ft | 397 kts | 213° |
| 2026-04-25 03:41 | 36.16831 | 142.14831 | 36690 ft | 393 kts | 213° |
| 2026-04-25 03:41 | 36.14272 | 142.13739 | 36403 ft | 385 kts | 217° |
| 2026-04-25 03:41 | 36.11900 | 142.12338 | 36231 ft | 374 kts | 224° |
| 2026-04-25 03:42 | 36.07796 | 142.08627 | 36234 ft | 359 kts | 233° |
| 2026-04-25 03:42 | 36.04635 | 142.04019 | 36232 ft | 345 kts | 243° |
| 2026-04-25 03:43 | 36.02462 | 141.98865 | 36237 ft | 340 kts | 251° |
| 2026-04-25 03:43 | 36.00588 | 141.93553 | 36225 ft | 336 kts | 251° |
| 2026-04-25 03:44 | 35.98676 | 141.88226 | 36225 ft | 340 kts | 251° |
| 2026-04-25 03:44 | 35.96760 | 141.82925 | 36227 ft | 342 kts | 250° |
| 2026-04-25 03:45 | 35.95106 | 141.77507 | 36220 ft | 336 kts | 258° |
| 2026-04-25 03:45 | 35.94431 | 141.71855 | 36050 ft | 328 kts | 267° |
| 2026-04-25 03:46 | 35.94428 | 141.69063 | 35500 ft | 323 kts | 269° |
| 2026-04-25 03:46 | 35.94459 | 141.66319 | 34885 ft | 319 kts | 268° |
| 2026-04-25 03:46 | 35.94482 | 141.63623 | 34383 ft | 323 kts | 267° |
| 2026-04-25 03:46 | 35.94498 | 141.60757 | 33838 ft | 342 kts | 266° |
| 2026-04-25 03:47 | 35.94511 | 141.57811 | 33268 ft | 353 kts | 266° |
| 2026-04-25 03:47 | 35.94527 | 141.54778 | 32696 ft | 355 kts | 268° |
| 2026-04-25 03:47 | 35.94542 | 141.51752 | 32081 ft | 355 kts | 267° |
| 2026-04-25 03:47 | 35.94561 | 141.47298 | 30950 ft | 356 kts | 268° |
| 2026-04-25 03:48 | 35.94677 | 141.00177 | 23679 ft | 342 kts | 266° |
| 2026-04-25 03:48 | 35.94814 | 140.91126 | 21770 ft | 338 kts | 274° |
| 2026-04-25 03:48 | 35.95190 | 140.88264 | 20567 ft | 347 kts | 281° |
| 2026-04-25 03:48 | 35.95709 | 140.85326 | 19114 ft | 359 kts | 278° |
| 2026-04-25 03:49 | 35.96035 | 140.82295 | 17883 ft | 363 kts | 279° |
| 2026-04-25 03:49 | 35.96349 | 140.79211 | 16892 ft | 359 kts | 278° |
| 2026-04-25 03:49 | 35.96651 | 140.76227 | 15972 ft | 354 kts | 278° |
| 2026-04-25 03:49 | 35.96953 | 140.73233 | 14945 ft | 354 kts | 278° |
| 2026-04-25 03:50 | 35.97255 | 140.70229 | 13826 ft | 356 kts | 278° |
| 2026-04-25 03:50 | 35.97555 | 140.67238 | 12829 ft | 354 kts | 278° |
| 2026-04-25 03:50 | 35.97854 | 140.64253 | 11948 ft | 349 kts | 278° |
| 2026-04-25 03:50 | 35.98146 | 140.61327 | 11118 ft | 344 kts | 278° |
| 2026-04-25 03:51 | 35.98435 | 140.58417 | 10166 ft | 342 kts | 279° |
| 2026-04-25 03:51 | 35.98717 | 140.55569 | 9502 ft | 331 kts | 279° |
| 2026-04-25 03:51 | 35.98976 | 140.52808 | 9217 ft | 314 kts | 276° |
| 2026-04-25 03:51 | 35.98736 | 140.50215 | 9161 ft | 304 kts | 255° |
| 2026-04-25 03:52 | 35.97767 | 140.47940 | 9138 ft | 293 kts | 234° |
| 2026-04-25 03:52 | 35.96301 | 140.46304 | 9119 ft | 283 kts | 216° |
| 2026-04-25 03:52 | 35.94551 | 140.45241 | 8927 ft | 279 kts | 204° |
| 2026-04-25 03:52 | 35.92737 | 140.44339 | 8564 ft | 281 kts | 204° |
| 2026-04-25 03:53 | 35.80838 | 140.38507 | 7065 ft | 274 kts | 204° |
| 2026-04-25 03:53 | 35.71343 | 140.33874 | 7125 ft | 278 kts | 203° |
| 2026-04-25 03:53 | 35.69528 | 140.32988 | 7119 ft | 278 kts | 203° |
| 2026-04-25 03:53 | 35.67720 | 140.32108 | 7098 ft | 276 kts | 203° |
| 2026-04-25 03:54 | 35.65953 | 140.31247 | 7100 ft | 275 kts | 203° |
| 2026-04-25 03:54 | 35.64153 | 140.30371 | 7096 ft | 277 kts | 203° |
| 2026-04-25 03:54 | 35.62375 | 140.29506 | 7106 ft | 277 kts | 203° |
| 2026-04-25 03:54 | 35.60571 | 140.28628 | 7107 ft | 278 kts | 202° |
| 2026-04-25 03:55 | 35.58765 | 140.27751 | 7101 ft | 277 kts | 202° |
| 2026-04-25 03:55 | 35.56982 | 140.26886 | 7093 ft | 276 kts | 203° |
| 2026-04-25 03:55 | 35.46586 | 140.21845 | 7114 ft | 279 kts | 202° |
| 2026-04-25 03:55 | 35.44797 | 140.20979 | 7098 ft | 279 kts | 202° |
| 2026-04-25 03:56 | 35.42986 | 140.20103 | 7091 ft | 277 kts | 202° |
| 2026-04-25 03:56 | 35.41200 | 140.19241 | 7088 ft | 277 kts | 202° |
| 2026-04-25 03:56 | 35.39395 | 140.18370 | 7092 ft | 276 kts | 202° |
| 2026-04-25 03:56 | 35.37603 | 140.17506 | 7092 ft | 276 kts | 202° |
| 2026-04-25 03:57 | 35.35828 | 140.16652 | 7087 ft | 276 kts | 203° |
| 2026-04-25 03:57 | 35.34094 | 140.15755 | 6878 ft | 271 kts | 212° |
| 2026-04-25 03:57 | 35.32701 | 140.14191 | 6380 ft | 273 kts | 235° |
| 2026-04-25 03:57 | 35.31606 | 140.12317 | 6135 ft | 268 kts | 241° |
| 2026-04-25 03:58 | 35.30983 | 140.10226 | 5784 ft | 265 kts | 260° |
| 2026-04-25 03:58 | 35.30628 | 140.07993 | 5378 ft | 267 kts | 262° |
| 2026-04-25 03:58 | 35.30302 | 140.05797 | 5183 ft | 261 kts | 262° |
| 2026-04-25 03:58 | 35.30199 | 140.03586 | 4797 ft | 260 kts | 282° |
| 2026-04-25 03:59 | 35.30691 | 140.01476 | 4392 ft | 260 kts | 291° |
| 2026-04-25 03:59 | 35.31290 | 139.99405 | 4240 ft | 253 kts | 292° |
| 2026-04-25 03:59 | 35.31969 | 139.97411 | 4232 ft | 257 kts | 301° |
| 2026-04-25 03:59 | 35.32847 | 139.95467 | 4239 ft | 259 kts | 302° |
| 2026-04-25 04:00 | 35.33727 | 139.93661 | 4211 ft | 238 kts | 311° |
| 2026-04-25 04:00 | 35.34805 | 139.92259 | 4228 ft | 216 kts | 320° |
| 2026-04-25 04:00 | 35.35970 | 139.91093 | 3994 ft | 215 kts | 327° |
| 2026-04-25 04:00 | 35.37203 | 139.90120 | 3735 ft | 208 kts | 332° |
| 2026-04-25 04:01 | 35.38425 | 139.89249 | 3467 ft | 197 kts | 334° |
| 2026-04-25 04:01 | 35.39582 | 139.88455 | 3219 ft | 188 kts | 335° |
| 2026-04-25 04:01 | 35.40697 | 139.87689 | 2980 ft | 179 kts | 335° |
| 2026-04-25 04:01 | 35.41738 | 139.86964 | 2756 ft | 164 kts | 335° |
| 2026-04-25 04:02 | 35.42742 | 139.86264 | 2518 ft | 169 kts | 334° |
| 2026-04-25 04:02 | 35.43718 | 139.85573 | 2308 ft | 153 kts | 335° |
| 2026-04-25 04:02 | 35.44617 | 139.84944 | 2115 ft | 146 kts | 335° |
| 2026-04-25 04:02 | 35.45500 | 139.84319 | 1920 ft | 146 kts | 335° |
| 2026-04-25 04:03 | 35.46376 | 139.83701 | 1718 ft | 144 kts | 336° |
| 2026-04-25 04:03 | 35.47241 | 139.83095 | 1518 ft | 143 kts | 335° |
| 2026-04-25 04:03 | 35.48115 | 139.82475 | 1317 ft | 145 kts | 335° |
| 2026-04-25 04:03 | 35.48993 | 139.81854 | 1110 ft | 145 kts | 334° |
| 2026-04-25 04:04 | 35.49860 | 139.81241 | 919 ft | 142 kts | 334° |
| 2026-04-25 04:04 | 35.50723 | 139.80632 | 727 ft | 142 kts | 333° |
| 2026-04-25 04:04 | 35.51572 | 139.80026 | 563 ft | 142 kts | 332° |
| 2026-04-25 04:04 | 35.52427 | 139.79423 | 350 ft | 142 kts | 332° |
| 2026-04-25 04:05 | 35.53278 | 139.78822 | 170 ft | 139 kts | 332° |
| 2026-04-25 04:05 | 35.54094 | 139.78252 | 36 ft | 128 kts | 332° |
| 2026-04-25 04:05 | 35.54762 | 139.77785 | 35 ft | 93 kts | 330° |
| 2026-04-25 04:05 | 35.55180 | 139.77472 | 35 ft | 39 kts | 317° |
| 2026-04-25 04:06 | 35.55278 | 139.77324 | 35 ft | 13 kts | 306° |
| 2026-04-25 04:06 | 35.55326 | 139.77208 | 35 ft | 17 kts | 289° |
| 2026-04-25 04:06 | 35.55294 | 139.77158 | 35 ft | 9 kts | 168° |
| 2026-04-25 04:06 | 35.55225 | 139.77205 | 35 ft | 13 kts | 149° |
| 2026-04-25 04:07 | 35.55135 | 139.77261 | 35 ft | 15 kts | 155° |
| 2026-04-25 04:07 | 35.55035 | 139.77338 | 35 ft | 17 kts | 141° |
| 2026-04-25 04:07 | 35.54936 | 139.77423 | 35 ft | 22 kts | 160° |
| 2026-04-25 04:07 | 35.54820 | 139.77493 | 35 ft | 21 kts | 157° |
| 2026-04-25 04:08 | 35.54742 | 139.77531 | 35 ft | 2 kts | 184° |
| 2026-04-25 04:08 | 35.54704 | 139.77510 | 35 ft | 8 kts | 216° |
| 2026-04-25 04:08 | 35.54654 | 139.77435 | 35 ft | 15 kts | 240° |
| 2026-04-25 04:08 | 35.54592 | 139.77306 | 35 ft | 19 kts | 239° |
| 2026-04-25 04:09 | 35.54531 | 139.77216 | 35 ft | 7 kts | 224° |
| 2026-04-25 04:09 | 35.54518 | 139.77196 | 35 ft | 7 kts | 237° |
| 2026-04-25 04:09 | 35.54484 | 139.77127 | 35 ft | 7 kts | 239° |
| 2026-04-25 04:09 | 35.54471 | 139.77098 | 35 ft | 0 kts | 240° |